<?xml version="1.0" encoding="UTF-8" standalone="no" ?>
<gpx xmlns="http://www.topografix.com/GPX/1/1" xmlns:xsi="http://www.w3.org/2001/XMLSchema-instance" xsi:schemaLocation="http://www.topografix.com/GPX/1/1 http://www.topografix.com/GPX/1/1/gpx.xsd" version="1.1" creator="VisuGPX - https://www.visugpx.com">
  <metadata>
    <name>Plomb du Cantal</name>
    <desc><![CDATA[De la station du Lioran au sommet du Plomb]]></desc>
  </metadata>
  <trk>
    <name><![CDATA[20-JUIL-15 12:44:59]]></name>
    <trkseg>
      <trkpt lat="45.08094" lon="2.74917">
        <ele>1244.08</ele>
        <time>2015-07-20T07:32:58Z</time>
      </trkpt>
      <trkpt lat="45.08095" lon="2.74914">
        <ele>1243.6</ele>
        <time>2015-07-20T07:33:12Z</time>
      </trkpt>
      <trkpt lat="45.08096" lon="2.74913">
        <ele>1241.68</ele>
        <time>2015-07-20T07:33:23Z</time>
      </trkpt>
      <trkpt lat="45.08095" lon="2.74913">
        <ele>1242.16</ele>
        <time>2015-07-20T07:33:31Z</time>
      </trkpt>
      <trkpt lat="45.08083" lon="2.74909">
        <ele>1241.68</ele>
        <time>2015-07-20T07:33:47Z</time>
      </trkpt>
      <trkpt lat="45.0807" lon="2.74903">
        <ele>1240.72</ele>
        <time>2015-07-20T07:34:01Z</time>
      </trkpt>
      <trkpt lat="45.08063" lon="2.74902">
        <ele>1241.68</ele>
        <time>2015-07-20T07:34:08Z</time>
      </trkpt>
      <trkpt lat="45.08057" lon="2.74897">
        <ele>1243.12</ele>
        <time>2015-07-20T07:34:16Z</time>
      </trkpt>
      <trkpt lat="45.08051" lon="2.74893">
        <ele>1244.08</ele>
        <time>2015-07-20T07:34:30Z</time>
      </trkpt>
      <trkpt lat="45.08051" lon="2.74888">
        <ele>1243.6</ele>
        <time>2015-07-20T07:34:47Z</time>
      </trkpt>
      <trkpt lat="45.0805" lon="2.74886">
        <ele>1243.6</ele>
        <time>2015-07-20T07:34:54Z</time>
      </trkpt>
      <trkpt lat="45.08048" lon="2.74886">
        <ele>1242.64</ele>
        <time>2015-07-20T07:34:57Z</time>
      </trkpt>
      <trkpt lat="45.08043" lon="2.74889">
        <ele>1242.64</ele>
        <time>2015-07-20T07:35:09Z</time>
      </trkpt>
      <trkpt lat="45.08036" lon="2.74886">
        <ele>1240.24</ele>
        <time>2015-07-20T07:35:19Z</time>
      </trkpt>
      <trkpt lat="45.08024" lon="2.74883">
        <ele>1242.16</ele>
        <time>2015-07-20T07:35:31Z</time>
      </trkpt>
      <trkpt lat="45.08017" lon="2.7487">
        <ele>1241.68</ele>
        <time>2015-07-20T07:35:43Z</time>
      </trkpt>
      <trkpt lat="45.08016" lon="2.74868">
        <ele>1241.2</ele>
        <time>2015-07-20T07:35:45Z</time>
      </trkpt>
      <trkpt lat="45.0801" lon="2.74864">
        <ele>1241.68</ele>
        <time>2015-07-20T07:35:53Z</time>
      </trkpt>
      <trkpt lat="45.08006" lon="2.74854">
        <ele>1244.08</ele>
        <time>2015-07-20T07:36:03Z</time>
      </trkpt>
      <trkpt lat="45.08001" lon="2.74847">
        <ele>1247.93</ele>
        <time>2015-07-20T07:36:14Z</time>
      </trkpt>
      <trkpt lat="45.07994" lon="2.74842">
        <ele>1251.77</ele>
        <time>2015-07-20T07:36:25Z</time>
      </trkpt>
      <trkpt lat="45.07992" lon="2.74838">
        <ele>1254.18</ele>
        <time>2015-07-20T07:36:37Z</time>
      </trkpt>
      <trkpt lat="45.07991" lon="2.74836">
        <ele>1256.1</ele>
        <time>2015-07-20T07:36:49Z</time>
      </trkpt>
      <trkpt lat="45.07988" lon="2.74832">
        <ele>1257.06</ele>
        <time>2015-07-20T07:37:00Z</time>
      </trkpt>
      <trkpt lat="45.07982" lon="2.74819">
        <ele>1258.5</ele>
        <time>2015-07-20T07:37:13Z</time>
      </trkpt>
      <trkpt lat="45.07975" lon="2.74807">
        <ele>1258.98</ele>
        <time>2015-07-20T07:37:25Z</time>
      </trkpt>
      <trkpt lat="45.07975" lon="2.74805">
        <ele>1258.98</ele>
        <time>2015-07-20T07:37:26Z</time>
      </trkpt>
      <trkpt lat="45.07973" lon="2.74799">
        <ele>1259.94</ele>
        <time>2015-07-20T07:37:31Z</time>
      </trkpt>
      <trkpt lat="45.07964" lon="2.74789">
        <ele>1263.31</ele>
        <time>2015-07-20T07:37:43Z</time>
      </trkpt>
      <trkpt lat="45.07955" lon="2.74782">
        <ele>1267.16</ele>
        <time>2015-07-20T07:37:57Z</time>
      </trkpt>
      <trkpt lat="45.07952" lon="2.74776">
        <ele>1268.12</ele>
        <time>2015-07-20T07:38:04Z</time>
      </trkpt>
      <trkpt lat="45.07949" lon="2.74769">
        <ele>1268.6</ele>
        <time>2015-07-20T07:38:09Z</time>
      </trkpt>
      <trkpt lat="45.07949" lon="2.74766">
        <ele>1268.6</ele>
        <time>2015-07-20T07:38:11Z</time>
      </trkpt>
      <trkpt lat="45.07942" lon="2.74751">
        <ele>1268.12</ele>
        <time>2015-07-20T07:38:25Z</time>
      </trkpt>
      <trkpt lat="45.07938" lon="2.7474">
        <ele>1267.16</ele>
        <time>2015-07-20T07:38:38Z</time>
      </trkpt>
      <trkpt lat="45.07934" lon="2.74733">
        <ele>1264.75</ele>
        <time>2015-07-20T07:38:47Z</time>
      </trkpt>
      <trkpt lat="45.07936" lon="2.74725">
        <ele>1266.19</ele>
        <time>2015-07-20T07:38:56Z</time>
      </trkpt>
      <trkpt lat="45.07935" lon="2.74717">
        <ele>1266.19</ele>
        <time>2015-07-20T07:39:02Z</time>
      </trkpt>
      <trkpt lat="45.07936" lon="2.74705">
        <ele>1265.71</ele>
        <time>2015-07-20T07:39:15Z</time>
      </trkpt>
      <trkpt lat="45.07937" lon="2.74703">
        <ele>1266.67</ele>
        <time>2015-07-20T07:39:18Z</time>
      </trkpt>
      <trkpt lat="45.0794" lon="2.74689">
        <ele>1264.27</ele>
        <time>2015-07-20T07:39:29Z</time>
      </trkpt>
      <trkpt lat="45.0794" lon="2.74685">
        <ele>1264.27</ele>
        <time>2015-07-20T07:39:32Z</time>
      </trkpt>
      <trkpt lat="45.07929" lon="2.74681">
        <ele>1267.64</ele>
        <time>2015-07-20T07:39:46Z</time>
      </trkpt>
      <trkpt lat="45.07928" lon="2.74678">
        <ele>1270.04</ele>
        <time>2015-07-20T07:40:00Z</time>
      </trkpt>
      <trkpt lat="45.07928" lon="2.74678">
        <ele>1270.04</ele>
        <time>2015-07-20T07:40:17Z</time>
      </trkpt>
      <trkpt lat="45.07927" lon="2.74678">
        <ele>1270.04</ele>
        <time>2015-07-20T07:40:19Z</time>
      </trkpt>
      <trkpt lat="45.07925" lon="2.74677">
        <ele>1271</ele>
        <time>2015-07-20T07:40:22Z</time>
      </trkpt>
      <trkpt lat="45.07917" lon="2.74665">
        <ele>1271</ele>
        <time>2015-07-20T07:40:35Z</time>
      </trkpt>
      <trkpt lat="45.07915" lon="2.74659">
        <ele>1270.04</ele>
        <time>2015-07-20T07:40:48Z</time>
      </trkpt>
      <trkpt lat="45.07915" lon="2.74659">
        <ele>1270.04</ele>
        <time>2015-07-20T07:41:07Z</time>
      </trkpt>
      <trkpt lat="45.07914" lon="2.74658">
        <ele>1270.04</ele>
        <time>2015-07-20T07:41:28Z</time>
      </trkpt>
      <trkpt lat="45.07914" lon="2.74658">
        <ele>1270.04</ele>
        <time>2015-07-20T07:41:36Z</time>
      </trkpt>
      <trkpt lat="45.07913" lon="2.74657">
        <ele>1270.52</ele>
        <time>2015-07-20T07:41:39Z</time>
      </trkpt>
      <trkpt lat="45.07916" lon="2.74646">
        <ele>1271.48</ele>
        <time>2015-07-20T07:41:46Z</time>
      </trkpt>
      <trkpt lat="45.07915" lon="2.74626">
        <ele>1269.08</ele>
        <time>2015-07-20T07:42:00Z</time>
      </trkpt>
      <trkpt lat="45.07912" lon="2.74608">
        <ele>1268.12</ele>
        <time>2015-07-20T07:42:14Z</time>
      </trkpt>
      <trkpt lat="45.07913" lon="2.74589">
        <ele>1265.23</ele>
        <time>2015-07-20T07:42:28Z</time>
      </trkpt>
      <trkpt lat="45.07914" lon="2.74573">
        <ele>1262.35</ele>
        <time>2015-07-20T07:42:38Z</time>
      </trkpt>
      <trkpt lat="45.07912" lon="2.74557">
        <ele>1258.5</ele>
        <time>2015-07-20T07:42:51Z</time>
      </trkpt>
      <trkpt lat="45.07909" lon="2.74544">
        <ele>1257.54</ele>
        <time>2015-07-20T07:43:03Z</time>
      </trkpt>
      <trkpt lat="45.07905" lon="2.74531">
        <ele>1256.1</ele>
        <time>2015-07-20T07:43:13Z</time>
      </trkpt>
      <trkpt lat="45.07901" lon="2.74512">
        <ele>1251.29</ele>
        <time>2015-07-20T07:43:27Z</time>
      </trkpt>
      <trkpt lat="45.07899" lon="2.74505">
        <ele>1249.85</ele>
        <time>2015-07-20T07:43:33Z</time>
      </trkpt>
      <trkpt lat="45.07895" lon="2.74503">
        <ele>1249.85</ele>
        <time>2015-07-20T07:43:37Z</time>
      </trkpt>
      <trkpt lat="45.0789" lon="2.74498">
        <ele>1249.37</ele>
        <time>2015-07-20T07:43:44Z</time>
      </trkpt>
      <trkpt lat="45.0789" lon="2.74492">
        <ele>1248.89</ele>
        <time>2015-07-20T07:43:47Z</time>
      </trkpt>
      <trkpt lat="45.07889" lon="2.74478">
        <ele>1249.37</ele>
        <time>2015-07-20T07:43:54Z</time>
      </trkpt>
      <trkpt lat="45.07889" lon="2.74471">
        <ele>1249.37</ele>
        <time>2015-07-20T07:43:58Z</time>
      </trkpt>
      <trkpt lat="45.07887" lon="2.74452">
        <ele>1247.45</ele>
        <time>2015-07-20T07:44:09Z</time>
      </trkpt>
      <trkpt lat="45.07881" lon="2.74425">
        <ele>1247.45</ele>
        <time>2015-07-20T07:44:25Z</time>
      </trkpt>
      <trkpt lat="45.07881" lon="2.74423">
        <ele>1247.45</ele>
        <time>2015-07-20T07:44:26Z</time>
      </trkpt>
      <trkpt lat="45.07881" lon="2.7442">
        <ele>1247.45</ele>
        <time>2015-07-20T07:44:28Z</time>
      </trkpt>
      <trkpt lat="45.07879" lon="2.7441">
        <ele>1246.97</ele>
        <time>2015-07-20T07:44:35Z</time>
      </trkpt>
      <trkpt lat="45.07878" lon="2.74392">
        <ele>1248.89</ele>
        <time>2015-07-20T07:44:46Z</time>
      </trkpt>
      <trkpt lat="45.07875" lon="2.74373">
        <ele>1248.41</ele>
        <time>2015-07-20T07:44:58Z</time>
      </trkpt>
      <trkpt lat="45.07873" lon="2.74369">
        <ele>1248.41</ele>
        <time>2015-07-20T07:45:02Z</time>
      </trkpt>
      <trkpt lat="45.07865" lon="2.74352">
        <ele>1247.45</ele>
        <time>2015-07-20T07:45:14Z</time>
      </trkpt>
      <trkpt lat="45.07867" lon="2.74332">
        <ele>1246.49</ele>
        <time>2015-07-20T07:45:25Z</time>
      </trkpt>
      <trkpt lat="45.07865" lon="2.74318">
        <ele>1246.01</ele>
        <time>2015-07-20T07:45:34Z</time>
      </trkpt>
      <trkpt lat="45.07866" lon="2.74297">
        <ele>1246.01</ele>
        <time>2015-07-20T07:45:46Z</time>
      </trkpt>
      <trkpt lat="45.07864" lon="2.7428">
        <ele>1241.2</ele>
        <time>2015-07-20T07:45:59Z</time>
      </trkpt>
      <trkpt lat="45.07862" lon="2.74277">
        <ele>1240.24</ele>
        <time>2015-07-20T07:46:02Z</time>
      </trkpt>
      <trkpt lat="45.07859" lon="2.74272">
        <ele>1240.24</ele>
        <time>2015-07-20T07:46:06Z</time>
      </trkpt>
      <trkpt lat="45.07858" lon="2.7427">
        <ele>1240.24</ele>
        <time>2015-07-20T07:46:08Z</time>
      </trkpt>
      <trkpt lat="45.07847" lon="2.74265">
        <ele>1240.24</ele>
        <time>2015-07-20T07:46:20Z</time>
      </trkpt>
      <trkpt lat="45.07838" lon="2.74262">
        <ele>1240.24</ele>
        <time>2015-07-20T07:46:28Z</time>
      </trkpt>
      <trkpt lat="45.07828" lon="2.74254">
        <ele>1239.76</ele>
        <time>2015-07-20T07:46:39Z</time>
      </trkpt>
      <trkpt lat="45.07823" lon="2.74254">
        <ele>1240.72</ele>
        <time>2015-07-20T07:46:51Z</time>
      </trkpt>
      <trkpt lat="45.07824" lon="2.74252">
        <ele>1241.2</ele>
        <time>2015-07-20T07:46:58Z</time>
      </trkpt>
      <trkpt lat="45.07825" lon="2.74247">
        <ele>1241.2</ele>
        <time>2015-07-20T07:47:02Z</time>
      </trkpt>
      <trkpt lat="45.07835" lon="2.74221">
        <ele>1241.68</ele>
        <time>2015-07-20T07:47:18Z</time>
      </trkpt>
      <trkpt lat="45.07836" lon="2.74218">
        <ele>1241.68</ele>
        <time>2015-07-20T07:47:20Z</time>
      </trkpt>
      <trkpt lat="45.07838" lon="2.74217">
        <ele>1240.72</ele>
        <time>2015-07-20T07:47:22Z</time>
      </trkpt>
      <trkpt lat="45.07848" lon="2.74205">
        <ele>1239.76</ele>
        <time>2015-07-20T07:47:34Z</time>
      </trkpt>
      <trkpt lat="45.07851" lon="2.74196">
        <ele>1239.76</ele>
        <time>2015-07-20T07:47:39Z</time>
      </trkpt>
      <trkpt lat="45.07854" lon="2.74177">
        <ele>1240.72</ele>
        <time>2015-07-20T07:47:53Z</time>
      </trkpt>
      <trkpt lat="45.0785" lon="2.74174">
        <ele>1241.68</ele>
        <time>2015-07-20T07:48:01Z</time>
      </trkpt>
      <trkpt lat="45.0784" lon="2.74166">
        <ele>1242.64</ele>
        <time>2015-07-20T07:48:16Z</time>
      </trkpt>
      <trkpt lat="45.07839" lon="2.74166">
        <ele>1242.64</ele>
        <time>2015-07-20T07:48:17Z</time>
      </trkpt>
      <trkpt lat="45.07836" lon="2.74163">
        <ele>1242.64</ele>
        <time>2015-07-20T07:48:21Z</time>
      </trkpt>
      <trkpt lat="45.07829" lon="2.74154">
        <ele>1244.56</ele>
        <time>2015-07-20T07:48:31Z</time>
      </trkpt>
      <trkpt lat="45.07828" lon="2.74151">
        <ele>1243.6</ele>
        <time>2015-07-20T07:48:38Z</time>
      </trkpt>
      <trkpt lat="45.07818" lon="2.74133">
        <ele>1241.68</ele>
        <time>2015-07-20T07:48:53Z</time>
      </trkpt>
      <trkpt lat="45.07815" lon="2.74118">
        <ele>1240.72</ele>
        <time>2015-07-20T07:49:06Z</time>
      </trkpt>
      <trkpt lat="45.07813" lon="2.74099">
        <ele>1237.83</ele>
        <time>2015-07-20T07:49:19Z</time>
      </trkpt>
      <trkpt lat="45.07806" lon="2.74085">
        <ele>1237.83</ele>
        <time>2015-07-20T07:49:33Z</time>
      </trkpt>
      <trkpt lat="45.07805" lon="2.74083">
        <ele>1237.83</ele>
        <time>2015-07-20T07:49:34Z</time>
      </trkpt>
      <trkpt lat="45.07802" lon="2.74076">
        <ele>1237.35</ele>
        <time>2015-07-20T07:49:45Z</time>
      </trkpt>
      <trkpt lat="45.078" lon="2.74068">
        <ele>1237.35</ele>
        <time>2015-07-20T07:49:50Z</time>
      </trkpt>
      <trkpt lat="45.07795" lon="2.74063">
        <ele>1235.43</ele>
        <time>2015-07-20T07:49:55Z</time>
      </trkpt>
      <trkpt lat="45.07792" lon="2.74055">
        <ele>1233.51</ele>
        <time>2015-07-20T07:50:01Z</time>
      </trkpt>
      <trkpt lat="45.07788" lon="2.74034">
        <ele>1232.55</ele>
        <time>2015-07-20T07:50:14Z</time>
      </trkpt>
      <trkpt lat="45.07786" lon="2.7403">
        <ele>1232.55</ele>
        <time>2015-07-20T07:50:18Z</time>
      </trkpt>
      <trkpt lat="45.07782" lon="2.74015">
        <ele>1233.99</ele>
        <time>2015-07-20T07:50:29Z</time>
      </trkpt>
      <trkpt lat="45.07779" lon="2.73999">
        <ele>1237.83</ele>
        <time>2015-07-20T07:50:42Z</time>
      </trkpt>
      <trkpt lat="45.07779" lon="2.73995">
        <ele>1238.8</ele>
        <time>2015-07-20T07:50:46Z</time>
      </trkpt>
      <trkpt lat="45.07778" lon="2.73978">
        <ele>1241.2</ele>
        <time>2015-07-20T07:51:00Z</time>
      </trkpt>
      <trkpt lat="45.07773" lon="2.73968">
        <ele>1242.64</ele>
        <time>2015-07-20T07:51:13Z</time>
      </trkpt>
      <trkpt lat="45.07773" lon="2.73967">
        <ele>1243.12</ele>
        <time>2015-07-20T07:51:14Z</time>
      </trkpt>
      <trkpt lat="45.07772" lon="2.73965">
        <ele>1243.12</ele>
        <time>2015-07-20T07:51:16Z</time>
      </trkpt>
      <trkpt lat="45.07767" lon="2.73955">
        <ele>1247.93</ele>
        <time>2015-07-20T07:51:30Z</time>
      </trkpt>
      <trkpt lat="45.07763" lon="2.73951">
        <ele>1249.37</ele>
        <time>2015-07-20T07:51:44Z</time>
      </trkpt>
      <trkpt lat="45.07759" lon="2.73939">
        <ele>1252.25</ele>
        <time>2015-07-20T07:51:56Z</time>
      </trkpt>
      <trkpt lat="45.07755" lon="2.73931">
        <ele>1254.66</ele>
        <time>2015-07-20T07:52:10Z</time>
      </trkpt>
      <trkpt lat="45.07749" lon="2.73921">
        <ele>1256.1</ele>
        <time>2015-07-20T07:52:24Z</time>
      </trkpt>
      <trkpt lat="45.07744" lon="2.73908">
        <ele>1255.62</ele>
        <time>2015-07-20T07:52:40Z</time>
      </trkpt>
      <trkpt lat="45.07741" lon="2.73901">
        <ele>1255.14</ele>
        <time>2015-07-20T07:52:49Z</time>
      </trkpt>
      <trkpt lat="45.07736" lon="2.7389">
        <ele>1258.02</ele>
        <time>2015-07-20T07:53:01Z</time>
      </trkpt>
      <trkpt lat="45.07728" lon="2.7388">
        <ele>1258.5</ele>
        <time>2015-07-20T07:53:14Z</time>
      </trkpt>
      <trkpt lat="45.07726" lon="2.73871">
        <ele>1257.54</ele>
        <time>2015-07-20T07:53:27Z</time>
      </trkpt>
      <trkpt lat="45.07723" lon="2.73858">
        <ele>1256.58</ele>
        <time>2015-07-20T07:53:40Z</time>
      </trkpt>
      <trkpt lat="45.07718" lon="2.73846">
        <ele>1254.66</ele>
        <time>2015-07-20T07:53:52Z</time>
      </trkpt>
      <trkpt lat="45.07709" lon="2.73837">
        <ele>1253.7</ele>
        <time>2015-07-20T07:54:07Z</time>
      </trkpt>
      <trkpt lat="45.07708" lon="2.73837">
        <ele>1253.7</ele>
        <time>2015-07-20T07:54:08Z</time>
      </trkpt>
      <trkpt lat="45.07696" lon="2.73848">
        <ele>1253.7</ele>
        <time>2015-07-20T07:54:23Z</time>
      </trkpt>
      <trkpt lat="45.07695" lon="2.73862">
        <ele>1257.06</ele>
        <time>2015-07-20T07:54:38Z</time>
      </trkpt>
      <trkpt lat="45.07695" lon="2.73876">
        <ele>1257.06</ele>
        <time>2015-07-20T07:54:55Z</time>
      </trkpt>
      <trkpt lat="45.07688" lon="2.73892">
        <ele>1256.58</ele>
        <time>2015-07-20T07:55:08Z</time>
      </trkpt>
      <trkpt lat="45.07684" lon="2.73902">
        <ele>1256.1</ele>
        <time>2015-07-20T07:55:22Z</time>
      </trkpt>
      <trkpt lat="45.07683" lon="2.73901">
        <ele>1255.14</ele>
        <time>2015-07-20T07:55:44Z</time>
      </trkpt>
      <trkpt lat="45.07674" lon="2.739">
        <ele>1255.14</ele>
        <time>2015-07-20T07:55:57Z</time>
      </trkpt>
      <trkpt lat="45.07651" lon="2.73895">
        <ele>1258.02</ele>
        <time>2015-07-20T07:56:16Z</time>
      </trkpt>
      <trkpt lat="45.07639" lon="2.73882">
        <ele>1258.5</ele>
        <time>2015-07-20T07:56:31Z</time>
      </trkpt>
      <trkpt lat="45.07633" lon="2.73877">
        <ele>1257.06</ele>
        <time>2015-07-20T07:56:39Z</time>
      </trkpt>
      <trkpt lat="45.07621" lon="2.73862">
        <ele>1256.58</ele>
        <time>2015-07-20T07:56:56Z</time>
      </trkpt>
      <trkpt lat="45.07613" lon="2.73854">
        <ele>1258.5</ele>
        <time>2015-07-20T07:57:10Z</time>
      </trkpt>
      <trkpt lat="45.07611" lon="2.7385">
        <ele>1259.46</ele>
        <time>2015-07-20T07:57:14Z</time>
      </trkpt>
      <trkpt lat="45.07609" lon="2.73831">
        <ele>1261.87</ele>
        <time>2015-07-20T07:57:27Z</time>
      </trkpt>
      <trkpt lat="45.07609" lon="2.73814">
        <ele>1262.35</ele>
        <time>2015-07-20T07:57:41Z</time>
      </trkpt>
      <trkpt lat="45.07602" lon="2.73803">
        <ele>1264.27</ele>
        <time>2015-07-20T07:57:53Z</time>
      </trkpt>
      <trkpt lat="45.07601" lon="2.7381">
        <ele>1268.12</ele>
        <time>2015-07-20T07:58:03Z</time>
      </trkpt>
      <trkpt lat="45.07599" lon="2.7382">
        <ele>1270.52</ele>
        <time>2015-07-20T07:58:13Z</time>
      </trkpt>
      <trkpt lat="45.07597" lon="2.73834">
        <ele>1271.96</ele>
        <time>2015-07-20T07:58:24Z</time>
      </trkpt>
      <trkpt lat="45.076" lon="2.73851">
        <ele>1274.36</ele>
        <time>2015-07-20T07:58:37Z</time>
      </trkpt>
      <trkpt lat="45.076" lon="2.73863">
        <ele>1275.81</ele>
        <time>2015-07-20T07:58:44Z</time>
      </trkpt>
      <trkpt lat="45.07607" lon="2.73876">
        <ele>1276.77</ele>
        <time>2015-07-20T07:58:58Z</time>
      </trkpt>
      <trkpt lat="45.07608" lon="2.73876">
        <ele>1276.29</ele>
        <time>2015-07-20T07:59:14Z</time>
      </trkpt>
      <trkpt lat="45.0761" lon="2.73879">
        <ele>1277.73</ele>
        <time>2015-07-20T07:59:49Z</time>
      </trkpt>
      <trkpt lat="45.07612" lon="2.739">
        <ele>1276.29</ele>
        <time>2015-07-20T08:00:03Z</time>
      </trkpt>
      <trkpt lat="45.07618" lon="2.73916">
        <ele>1274.36</ele>
        <time>2015-07-20T08:00:16Z</time>
      </trkpt>
      <trkpt lat="45.07616" lon="2.73927">
        <ele>1274.36</ele>
        <time>2015-07-20T08:00:28Z</time>
      </trkpt>
      <trkpt lat="45.07611" lon="2.73928">
        <ele>1275.81</ele>
        <time>2015-07-20T08:00:41Z</time>
      </trkpt>
      <trkpt lat="45.07608" lon="2.73929">
        <ele>1277.73</ele>
        <time>2015-07-20T08:00:54Z</time>
      </trkpt>
      <trkpt lat="45.07601" lon="2.73927">
        <ele>1280.61</ele>
        <time>2015-07-20T08:01:10Z</time>
      </trkpt>
      <trkpt lat="45.0759" lon="2.73922">
        <ele>1283.98</ele>
        <time>2015-07-20T08:01:29Z</time>
      </trkpt>
      <trkpt lat="45.07574" lon="2.73906">
        <ele>1289.27</ele>
        <time>2015-07-20T08:01:47Z</time>
      </trkpt>
      <trkpt lat="45.07567" lon="2.73904">
        <ele>1287.82</ele>
        <time>2015-07-20T08:02:01Z</time>
      </trkpt>
      <trkpt lat="45.07569" lon="2.73909">
        <ele>1293.59</ele>
        <time>2015-07-20T08:02:18Z</time>
      </trkpt>
      <trkpt lat="45.0757" lon="2.73916">
        <ele>1295.03</ele>
        <time>2015-07-20T08:02:33Z</time>
      </trkpt>
      <trkpt lat="45.07567" lon="2.73924">
        <ele>1299.84</ele>
        <time>2015-07-20T08:02:49Z</time>
      </trkpt>
      <trkpt lat="45.07563" lon="2.73934">
        <ele>1304.17</ele>
        <time>2015-07-20T08:03:03Z</time>
      </trkpt>
      <trkpt lat="45.07563" lon="2.73942">
        <ele>1308.01</ele>
        <time>2015-07-20T08:03:16Z</time>
      </trkpt>
      <trkpt lat="45.07559" lon="2.73953">
        <ele>1308.01</ele>
        <time>2015-07-20T08:03:30Z</time>
      </trkpt>
      <trkpt lat="45.07556" lon="2.73962">
        <ele>1310.41</ele>
        <time>2015-07-20T08:03:45Z</time>
      </trkpt>
      <trkpt lat="45.07554" lon="2.73969">
        <ele>1318.59</ele>
        <time>2015-07-20T08:03:59Z</time>
      </trkpt>
      <trkpt lat="45.07553" lon="2.73977">
        <ele>1320.51</ele>
        <time>2015-07-20T08:04:11Z</time>
      </trkpt>
      <trkpt lat="45.07549" lon="2.73986">
        <ele>1320.99</ele>
        <time>2015-07-20T08:04:23Z</time>
      </trkpt>
      <trkpt lat="45.0755" lon="2.73987">
        <ele>1320.99</ele>
        <time>2015-07-20T08:04:43Z</time>
      </trkpt>
      <trkpt lat="45.07561" lon="2.73979">
        <ele>1326.28</ele>
        <time>2015-07-20T08:05:07Z</time>
      </trkpt>
      <trkpt lat="45.07557" lon="2.73985">
        <ele>1322.91</ele>
        <time>2015-07-20T08:05:28Z</time>
      </trkpt>
      <trkpt lat="45.07554" lon="2.73986">
        <ele>1321.95</ele>
        <time>2015-07-20T08:05:41Z</time>
      </trkpt>
      <trkpt lat="45.07551" lon="2.73986">
        <ele>1319.55</ele>
        <time>2015-07-20T08:06:09Z</time>
      </trkpt>
      <trkpt lat="45.07552" lon="2.73987">
        <ele>1318.59</ele>
        <time>2015-07-20T08:06:46Z</time>
      </trkpt>
      <trkpt lat="45.07551" lon="2.73987">
        <ele>1315.7</ele>
        <time>2015-07-20T08:07:01Z</time>
      </trkpt>
      <trkpt lat="45.07551" lon="2.73987">
        <ele>1315.7</ele>
        <time>2015-07-20T08:07:19Z</time>
      </trkpt>
      <trkpt lat="45.07551" lon="2.73987">
        <ele>1315.7</ele>
        <time>2015-07-20T08:07:37Z</time>
      </trkpt>
      <trkpt lat="45.07551" lon="2.73988">
        <ele>1315.7</ele>
        <time>2015-07-20T08:07:53Z</time>
      </trkpt>
      <trkpt lat="45.07548" lon="2.73985">
        <ele>1314.74</ele>
        <time>2015-07-20T08:08:07Z</time>
      </trkpt>
      <trkpt lat="45.07547" lon="2.73984">
        <ele>1313.78</ele>
        <time>2015-07-20T08:08:25Z</time>
      </trkpt>
      <trkpt lat="45.07547" lon="2.73984">
        <ele>1313.78</ele>
        <time>2015-07-20T08:09:02Z</time>
      </trkpt>
      <trkpt lat="45.07546" lon="2.73985">
        <ele>1312.82</ele>
        <time>2015-07-20T08:09:41Z</time>
      </trkpt>
      <trkpt lat="45.07547" lon="2.73987">
        <ele>1312.34</ele>
        <time>2015-07-20T08:09:59Z</time>
      </trkpt>
      <trkpt lat="45.07549" lon="2.73993">
        <ele>1312.34</ele>
        <time>2015-07-20T08:10:09Z</time>
      </trkpt>
      <trkpt lat="45.07551" lon="2.74009">
        <ele>1310.9</ele>
        <time>2015-07-20T08:10:22Z</time>
      </trkpt>
      <trkpt lat="45.07553" lon="2.74025">
        <ele>1310.41</ele>
        <time>2015-07-20T08:10:34Z</time>
      </trkpt>
      <trkpt lat="45.07558" lon="2.74035">
        <ele>1310.41</ele>
        <time>2015-07-20T08:10:43Z</time>
      </trkpt>
      <trkpt lat="45.07559" lon="2.74054">
        <ele>1311.38</ele>
        <time>2015-07-20T08:10:57Z</time>
      </trkpt>
      <trkpt lat="45.07563" lon="2.74067">
        <ele>1314.26</ele>
        <time>2015-07-20T08:11:08Z</time>
      </trkpt>
      <trkpt lat="45.07568" lon="2.74078">
        <ele>1317.14</ele>
        <time>2015-07-20T08:11:25Z</time>
      </trkpt>
      <trkpt lat="45.07574" lon="2.74085">
        <ele>1320.03</ele>
        <time>2015-07-20T08:11:34Z</time>
      </trkpt>
      <trkpt lat="45.0758" lon="2.74092">
        <ele>1320.99</ele>
        <time>2015-07-20T08:11:46Z</time>
      </trkpt>
      <trkpt lat="45.07588" lon="2.74105">
        <ele>1324.35</ele>
        <time>2015-07-20T08:11:59Z</time>
      </trkpt>
      <trkpt lat="45.07599" lon="2.74112">
        <ele>1323.39</ele>
        <time>2015-07-20T08:12:11Z</time>
      </trkpt>
      <trkpt lat="45.07608" lon="2.7412">
        <ele>1323.39</ele>
        <time>2015-07-20T08:12:25Z</time>
      </trkpt>
      <trkpt lat="45.07613" lon="2.74128">
        <ele>1324.83</ele>
        <time>2015-07-20T08:12:39Z</time>
      </trkpt>
      <trkpt lat="45.0761" lon="2.74141">
        <ele>1325.8</ele>
        <time>2015-07-20T08:12:51Z</time>
      </trkpt>
      <trkpt lat="45.07605" lon="2.74152">
        <ele>1328.68</ele>
        <time>2015-07-20T08:13:05Z</time>
      </trkpt>
      <trkpt lat="45.07603" lon="2.74164">
        <ele>1331.56</ele>
        <time>2015-07-20T08:13:20Z</time>
      </trkpt>
      <trkpt lat="45.07604" lon="2.74173">
        <ele>1334.45</ele>
        <time>2015-07-20T08:13:31Z</time>
      </trkpt>
      <trkpt lat="45.07607" lon="2.74181">
        <ele>1334.93</ele>
        <time>2015-07-20T08:13:44Z</time>
      </trkpt>
      <trkpt lat="45.07616" lon="2.74189">
        <ele>1336.85</ele>
        <time>2015-07-20T08:14:00Z</time>
      </trkpt>
      <trkpt lat="45.07626" lon="2.74199">
        <ele>1337.33</ele>
        <time>2015-07-20T08:14:13Z</time>
      </trkpt>
      <trkpt lat="45.07633" lon="2.74207">
        <ele>1338.77</ele>
        <time>2015-07-20T08:14:23Z</time>
      </trkpt>
      <trkpt lat="45.07636" lon="2.74222">
        <ele>1341.18</ele>
        <time>2015-07-20T08:14:36Z</time>
      </trkpt>
      <trkpt lat="45.07636" lon="2.74225">
        <ele>1341.66</ele>
        <time>2015-07-20T08:14:39Z</time>
      </trkpt>
      <trkpt lat="45.07629" lon="2.7424">
        <ele>1341.66</ele>
        <time>2015-07-20T08:14:54Z</time>
      </trkpt>
      <trkpt lat="45.07629" lon="2.74246">
        <ele>1342.14</ele>
        <time>2015-07-20T08:15:06Z</time>
      </trkpt>
      <trkpt lat="45.07625" lon="2.7425">
        <ele>1342.14</ele>
        <time>2015-07-20T08:15:20Z</time>
      </trkpt>
      <trkpt lat="45.0762" lon="2.74265">
        <ele>1344.54</ele>
        <time>2015-07-20T08:15:31Z</time>
      </trkpt>
      <trkpt lat="45.0762" lon="2.74268">
        <ele>1345.5</ele>
        <time>2015-07-20T08:15:35Z</time>
      </trkpt>
      <trkpt lat="45.07619" lon="2.74281">
        <ele>1347.91</ele>
        <time>2015-07-20T08:15:47Z</time>
      </trkpt>
      <trkpt lat="45.0762" lon="2.74294">
        <ele>1351.27</ele>
        <time>2015-07-20T08:16:01Z</time>
      </trkpt>
      <trkpt lat="45.07622" lon="2.74307">
        <ele>1349.83</ele>
        <time>2015-07-20T08:16:12Z</time>
      </trkpt>
      <trkpt lat="45.07623" lon="2.74317">
        <ele>1349.35</ele>
        <time>2015-07-20T08:16:22Z</time>
      </trkpt>
      <trkpt lat="45.07626" lon="2.74335">
        <ele>1350.31</ele>
        <time>2015-07-20T08:16:34Z</time>
      </trkpt>
      <trkpt lat="45.07629" lon="2.74345">
        <ele>1350.79</ele>
        <time>2015-07-20T08:16:40Z</time>
      </trkpt>
      <trkpt lat="45.07633" lon="2.74354">
        <ele>1353.67</ele>
        <time>2015-07-20T08:16:52Z</time>
      </trkpt>
      <trkpt lat="45.07637" lon="2.74365">
        <ele>1357.04</ele>
        <time>2015-07-20T08:17:02Z</time>
      </trkpt>
      <trkpt lat="45.07636" lon="2.74386">
        <ele>1355.6</ele>
        <time>2015-07-20T08:17:17Z</time>
      </trkpt>
      <trkpt lat="45.07632" lon="2.74399">
        <ele>1354.15</ele>
        <time>2015-07-20T08:17:27Z</time>
      </trkpt>
      <trkpt lat="45.07631" lon="2.74403">
        <ele>1354.15</ele>
        <time>2015-07-20T08:17:31Z</time>
      </trkpt>
      <trkpt lat="45.0763" lon="2.74419">
        <ele>1353.67</ele>
        <time>2015-07-20T08:17:42Z</time>
      </trkpt>
      <trkpt lat="45.0763" lon="2.74421">
        <ele>1353.67</ele>
        <time>2015-07-20T08:17:43Z</time>
      </trkpt>
      <trkpt lat="45.07628" lon="2.74435">
        <ele>1355.12</ele>
        <time>2015-07-20T08:17:52Z</time>
      </trkpt>
      <trkpt lat="45.07635" lon="2.74442">
        <ele>1354.15</ele>
        <time>2015-07-20T08:18:05Z</time>
      </trkpt>
      <trkpt lat="45.07628" lon="2.74438">
        <ele>1355.6</ele>
        <time>2015-07-20T08:18:16Z</time>
      </trkpt>
      <trkpt lat="45.07626" lon="2.74438">
        <ele>1356.08</ele>
        <time>2015-07-20T08:18:20Z</time>
      </trkpt>
      <trkpt lat="45.07619" lon="2.74437">
        <ele>1357.52</ele>
        <time>2015-07-20T08:18:26Z</time>
      </trkpt>
      <trkpt lat="45.07614" lon="2.74436">
        <ele>1358.48</ele>
        <time>2015-07-20T08:18:32Z</time>
      </trkpt>
      <trkpt lat="45.0761" lon="2.7444">
        <ele>1358.96</ele>
        <time>2015-07-20T08:18:35Z</time>
      </trkpt>
      <trkpt lat="45.07607" lon="2.74442">
        <ele>1361.84</ele>
        <time>2015-07-20T08:18:44Z</time>
      </trkpt>
      <trkpt lat="45.07608" lon="2.74442">
        <ele>1366.65</ele>
        <time>2015-07-20T08:18:53Z</time>
      </trkpt>
      <trkpt lat="45.07609" lon="2.74447">
        <ele>1370.5</ele>
        <time>2015-07-20T08:19:03Z</time>
      </trkpt>
      <trkpt lat="45.07608" lon="2.74452">
        <ele>1370.5</ele>
        <time>2015-07-20T08:19:10Z</time>
      </trkpt>
      <trkpt lat="45.07603" lon="2.74468">
        <ele>1369.05</ele>
        <time>2015-07-20T08:19:23Z</time>
      </trkpt>
      <trkpt lat="45.07603" lon="2.74468">
        <ele>1369.05</ele>
        <time>2015-07-20T08:19:24Z</time>
      </trkpt>
      <trkpt lat="45.07602" lon="2.74472">
        <ele>1369.05</ele>
        <time>2015-07-20T08:19:27Z</time>
      </trkpt>
      <trkpt lat="45.07603" lon="2.74482">
        <ele>1368.57</ele>
        <time>2015-07-20T08:19:41Z</time>
      </trkpt>
      <trkpt lat="45.07604" lon="2.74482">
        <ele>1368.09</ele>
        <time>2015-07-20T08:19:56Z</time>
      </trkpt>
      <trkpt lat="45.07607" lon="2.74486">
        <ele>1368.57</ele>
        <time>2015-07-20T08:20:07Z</time>
      </trkpt>
      <trkpt lat="45.07612" lon="2.74499">
        <ele>1370.98</ele>
        <time>2015-07-20T08:20:20Z</time>
      </trkpt>
      <trkpt lat="45.07613" lon="2.74512">
        <ele>1374.34</ele>
        <time>2015-07-20T08:20:33Z</time>
      </trkpt>
      <trkpt lat="45.07622" lon="2.74523">
        <ele>1375.3</ele>
        <time>2015-07-20T08:20:47Z</time>
      </trkpt>
      <trkpt lat="45.07623" lon="2.74528">
        <ele>1376.26</ele>
        <time>2015-07-20T08:20:51Z</time>
      </trkpt>
      <trkpt lat="45.07633" lon="2.74543">
        <ele>1377.23</ele>
        <time>2015-07-20T08:21:06Z</time>
      </trkpt>
      <trkpt lat="45.07633" lon="2.74547">
        <ele>1377.71</ele>
        <time>2015-07-20T08:21:23Z</time>
      </trkpt>
      <trkpt lat="45.07643" lon="2.7456">
        <ele>1376.26</ele>
        <time>2015-07-20T08:21:34Z</time>
      </trkpt>
      <trkpt lat="45.07648" lon="2.74575">
        <ele>1378.19</ele>
        <time>2015-07-20T08:21:48Z</time>
      </trkpt>
      <trkpt lat="45.07649" lon="2.7458">
        <ele>1378.67</ele>
        <time>2015-07-20T08:21:52Z</time>
      </trkpt>
      <trkpt lat="45.0765" lon="2.74599">
        <ele>1374.82</ele>
        <time>2015-07-20T08:22:05Z</time>
      </trkpt>
      <trkpt lat="45.0765" lon="2.74603">
        <ele>1376.26</ele>
        <time>2015-07-20T08:22:14Z</time>
      </trkpt>
      <trkpt lat="45.0765" lon="2.74615">
        <ele>1375.3</ele>
        <time>2015-07-20T08:22:24Z</time>
      </trkpt>
      <trkpt lat="45.07645" lon="2.74636">
        <ele>1375.3</ele>
        <time>2015-07-20T08:22:39Z</time>
      </trkpt>
      <trkpt lat="45.07642" lon="2.74649">
        <ele>1376.26</ele>
        <time>2015-07-20T08:22:49Z</time>
      </trkpt>
      <trkpt lat="45.07636" lon="2.74658">
        <ele>1375.3</ele>
        <time>2015-07-20T08:23:01Z</time>
      </trkpt>
      <trkpt lat="45.07636" lon="2.74659">
        <ele>1375.3</ele>
        <time>2015-07-20T08:23:04Z</time>
      </trkpt>
      <trkpt lat="45.0763" lon="2.74669">
        <ele>1374.82</ele>
        <time>2015-07-20T08:23:17Z</time>
      </trkpt>
      <trkpt lat="45.07618" lon="2.74683">
        <ele>1378.67</ele>
        <time>2015-07-20T08:23:30Z</time>
      </trkpt>
      <trkpt lat="45.07606" lon="2.74695">
        <ele>1376.26</ele>
        <time>2015-07-20T08:23:43Z</time>
      </trkpt>
      <trkpt lat="45.07601" lon="2.74703">
        <ele>1377.23</ele>
        <time>2015-07-20T08:23:58Z</time>
      </trkpt>
      <trkpt lat="45.07596" lon="2.74717">
        <ele>1381.07</ele>
        <time>2015-07-20T08:24:12Z</time>
      </trkpt>
      <trkpt lat="45.07589" lon="2.74722">
        <ele>1380.11</ele>
        <time>2015-07-20T08:24:31Z</time>
      </trkpt>
      <trkpt lat="45.07579" lon="2.74737">
        <ele>1379.63</ele>
        <time>2015-07-20T08:24:44Z</time>
      </trkpt>
      <trkpt lat="45.07564" lon="2.74748">
        <ele>1378.67</ele>
        <time>2015-07-20T08:24:59Z</time>
      </trkpt>
      <trkpt lat="45.0756" lon="2.74752">
        <ele>1379.15</ele>
        <time>2015-07-20T08:25:02Z</time>
      </trkpt>
      <trkpt lat="45.07546" lon="2.74754">
        <ele>1381.07</ele>
        <time>2015-07-20T08:25:15Z</time>
      </trkpt>
      <trkpt lat="45.07539" lon="2.74761">
        <ele>1382.51</ele>
        <time>2015-07-20T08:25:31Z</time>
      </trkpt>
      <trkpt lat="45.07534" lon="2.74757">
        <ele>1384.92</ele>
        <time>2015-07-20T08:25:46Z</time>
      </trkpt>
      <trkpt lat="45.07528" lon="2.74754">
        <ele>1386.36</ele>
        <time>2015-07-20T08:25:56Z</time>
      </trkpt>
      <trkpt lat="45.07521" lon="2.74759">
        <ele>1384.92</ele>
        <time>2015-07-20T08:26:10Z</time>
      </trkpt>
      <trkpt lat="45.07513" lon="2.74766">
        <ele>1383.47</ele>
        <time>2015-07-20T08:26:23Z</time>
      </trkpt>
      <trkpt lat="45.07505" lon="2.74775">
        <ele>1382.03</ele>
        <time>2015-07-20T08:26:37Z</time>
      </trkpt>
      <trkpt lat="45.07494" lon="2.7478">
        <ele>1379.15</ele>
        <time>2015-07-20T08:26:52Z</time>
      </trkpt>
      <trkpt lat="45.07478" lon="2.74779">
        <ele>1375.3</ele>
        <time>2015-07-20T08:27:06Z</time>
      </trkpt>
      <trkpt lat="45.07477" lon="2.74778">
        <ele>1375.3</ele>
        <time>2015-07-20T08:27:07Z</time>
      </trkpt>
      <trkpt lat="45.07474" lon="2.74775">
        <ele>1373.38</ele>
        <time>2015-07-20T08:27:19Z</time>
      </trkpt>
      <trkpt lat="45.07474" lon="2.74771">
        <ele>1372.42</ele>
        <time>2015-07-20T08:27:33Z</time>
      </trkpt>
      <trkpt lat="45.07476" lon="2.74774">
        <ele>1371.94</ele>
        <time>2015-07-20T08:27:40Z</time>
      </trkpt>
      <trkpt lat="45.07478" lon="2.74781">
        <ele>1369.54</ele>
        <time>2015-07-20T08:27:45Z</time>
      </trkpt>
      <trkpt lat="45.07479" lon="2.74789">
        <ele>1368.09</ele>
        <time>2015-07-20T08:27:51Z</time>
      </trkpt>
      <trkpt lat="45.07484" lon="2.74798">
        <ele>1367.61</ele>
        <time>2015-07-20T08:27:57Z</time>
      </trkpt>
      <trkpt lat="45.07488" lon="2.748">
        <ele>1366.65</ele>
        <time>2015-07-20T08:28:01Z</time>
      </trkpt>
      <trkpt lat="45.07494" lon="2.74808">
        <ele>1364.73</ele>
        <time>2015-07-20T08:28:09Z</time>
      </trkpt>
      <trkpt lat="45.07485" lon="2.74824">
        <ele>1366.17</ele>
        <time>2015-07-20T08:28:21Z</time>
      </trkpt>
      <trkpt lat="45.07484" lon="2.74827">
        <ele>1366.65</ele>
        <time>2015-07-20T08:28:23Z</time>
      </trkpt>
      <trkpt lat="45.07489" lon="2.74841">
        <ele>1370.5</ele>
        <time>2015-07-20T08:28:35Z</time>
      </trkpt>
      <trkpt lat="45.07494" lon="2.74856">
        <ele>1370.5</ele>
        <time>2015-07-20T08:28:46Z</time>
      </trkpt>
      <trkpt lat="45.07491" lon="2.7486">
        <ele>1369.54</ele>
        <time>2015-07-20T08:29:02Z</time>
      </trkpt>
      <trkpt lat="45.07501" lon="2.7488">
        <ele>1368.09</ele>
        <time>2015-07-20T08:29:16Z</time>
      </trkpt>
      <trkpt lat="45.07502" lon="2.74883">
        <ele>1368.09</ele>
        <time>2015-07-20T08:29:18Z</time>
      </trkpt>
      <trkpt lat="45.07504" lon="2.74887">
        <ele>1367.61</ele>
        <time>2015-07-20T08:29:27Z</time>
      </trkpt>
      <trkpt lat="45.07504" lon="2.74903">
        <ele>1371.46</ele>
        <time>2015-07-20T08:29:40Z</time>
      </trkpt>
      <trkpt lat="45.07502" lon="2.74913">
        <ele>1373.38</ele>
        <time>2015-07-20T08:29:50Z</time>
      </trkpt>
      <trkpt lat="45.07503" lon="2.74926">
        <ele>1373.38</ele>
        <time>2015-07-20T08:30:02Z</time>
      </trkpt>
      <trkpt lat="45.07503" lon="2.7494">
        <ele>1373.86</ele>
        <time>2015-07-20T08:30:14Z</time>
      </trkpt>
      <trkpt lat="45.07498" lon="2.74954">
        <ele>1374.34</ele>
        <time>2015-07-20T08:30:27Z</time>
      </trkpt>
      <trkpt lat="45.0749" lon="2.74962">
        <ele>1377.23</ele>
        <time>2015-07-20T08:30:39Z</time>
      </trkpt>
      <trkpt lat="45.07479" lon="2.74971">
        <ele>1381.55</ele>
        <time>2015-07-20T08:30:52Z</time>
      </trkpt>
      <trkpt lat="45.07468" lon="2.74976">
        <ele>1383.47</ele>
        <time>2015-07-20T08:31:07Z</time>
      </trkpt>
      <trkpt lat="45.07464" lon="2.74979">
        <ele>1383.47</ele>
        <time>2015-07-20T08:31:16Z</time>
      </trkpt>
      <trkpt lat="45.07457" lon="2.74986">
        <ele>1385.88</ele>
        <time>2015-07-20T08:31:28Z</time>
      </trkpt>
      <trkpt lat="45.07457" lon="2.74987">
        <ele>1385.88</ele>
        <time>2015-07-20T08:31:29Z</time>
      </trkpt>
      <trkpt lat="45.07451" lon="2.74996">
        <ele>1387.32</ele>
        <time>2015-07-20T08:31:42Z</time>
      </trkpt>
      <trkpt lat="45.07444" lon="2.75008">
        <ele>1390.2</ele>
        <time>2015-07-20T08:31:54Z</time>
      </trkpt>
      <trkpt lat="45.07441" lon="2.75013">
        <ele>1391.65</ele>
        <time>2015-07-20T08:32:00Z</time>
      </trkpt>
      <trkpt lat="45.07435" lon="2.75024">
        <ele>1394.05</ele>
        <time>2015-07-20T08:32:11Z</time>
      </trkpt>
      <trkpt lat="45.07433" lon="2.75026">
        <ele>1395.01</ele>
        <time>2015-07-20T08:32:13Z</time>
      </trkpt>
      <trkpt lat="45.0743" lon="2.75031">
        <ele>1395.97</ele>
        <time>2015-07-20T08:32:18Z</time>
      </trkpt>
      <trkpt lat="45.0742" lon="2.75031">
        <ele>1397.89</ele>
        <time>2015-07-20T08:32:31Z</time>
      </trkpt>
      <trkpt lat="45.0742" lon="2.7503">
        <ele>1396.45</ele>
        <time>2015-07-20T08:32:46Z</time>
      </trkpt>
      <trkpt lat="45.0742" lon="2.75029">
        <ele>1395.01</ele>
        <time>2015-07-20T08:33:04Z</time>
      </trkpt>
      <trkpt lat="45.0742" lon="2.75029">
        <ele>1394.05</ele>
        <time>2015-07-20T08:33:38Z</time>
      </trkpt>
      <trkpt lat="45.07419" lon="2.75027">
        <ele>1393.57</ele>
        <time>2015-07-20T08:34:02Z</time>
      </trkpt>
      <trkpt lat="45.07413" lon="2.75017">
        <ele>1395.97</ele>
        <time>2015-07-20T08:34:13Z</time>
      </trkpt>
      <trkpt lat="45.07408" lon="2.75009">
        <ele>1397.41</ele>
        <time>2015-07-20T08:34:24Z</time>
      </trkpt>
      <trkpt lat="45.07404" lon="2.75001">
        <ele>1398.86</ele>
        <time>2015-07-20T08:34:31Z</time>
      </trkpt>
      <trkpt lat="45.07402" lon="2.74998">
        <ele>1398.86</ele>
        <time>2015-07-20T08:34:34Z</time>
      </trkpt>
      <trkpt lat="45.07395" lon="2.74992">
        <ele>1399.34</ele>
        <time>2015-07-20T08:34:42Z</time>
      </trkpt>
      <trkpt lat="45.07389" lon="2.74985">
        <ele>1399.82</ele>
        <time>2015-07-20T08:34:51Z</time>
      </trkpt>
      <trkpt lat="45.07383" lon="2.74975">
        <ele>1401.26</ele>
        <time>2015-07-20T08:35:03Z</time>
      </trkpt>
      <trkpt lat="45.07375" lon="2.74965">
        <ele>1403.18</ele>
        <time>2015-07-20T08:35:15Z</time>
      </trkpt>
      <trkpt lat="45.07372" lon="2.74961">
        <ele>1404.62</ele>
        <time>2015-07-20T08:35:20Z</time>
      </trkpt>
      <trkpt lat="45.07371" lon="2.74957">
        <ele>1405.1</ele>
        <time>2015-07-20T08:35:23Z</time>
      </trkpt>
      <trkpt lat="45.07369" lon="2.74954">
        <ele>1406.55</ele>
        <time>2015-07-20T08:35:27Z</time>
      </trkpt>
      <trkpt lat="45.07359" lon="2.7495">
        <ele>1407.99</ele>
        <time>2015-07-20T08:35:39Z</time>
      </trkpt>
      <trkpt lat="45.07355" lon="2.74947">
        <ele>1409.43</ele>
        <time>2015-07-20T08:35:45Z</time>
      </trkpt>
      <trkpt lat="45.07348" lon="2.7494">
        <ele>1412.79</ele>
        <time>2015-07-20T08:35:58Z</time>
      </trkpt>
      <trkpt lat="45.07346" lon="2.74939">
        <ele>1413.28</ele>
        <time>2015-07-20T08:36:00Z</time>
      </trkpt>
      <trkpt lat="45.07341" lon="2.74938">
        <ele>1414.24</ele>
        <time>2015-07-20T08:36:06Z</time>
      </trkpt>
      <trkpt lat="45.07332" lon="2.74939">
        <ele>1418.08</ele>
        <time>2015-07-20T08:36:19Z</time>
      </trkpt>
      <trkpt lat="45.07324" lon="2.74944">
        <ele>1421.45</ele>
        <time>2015-07-20T08:36:34Z</time>
      </trkpt>
      <trkpt lat="45.07322" lon="2.74946">
        <ele>1422.89</ele>
        <time>2015-07-20T08:36:38Z</time>
      </trkpt>
      <trkpt lat="45.07317" lon="2.74953">
        <ele>1423.85</ele>
        <time>2015-07-20T08:36:51Z</time>
      </trkpt>
      <trkpt lat="45.0731" lon="2.74962">
        <ele>1426.25</ele>
        <time>2015-07-20T08:37:06Z</time>
      </trkpt>
      <trkpt lat="45.07305" lon="2.74966">
        <ele>1427.7</ele>
        <time>2015-07-20T08:37:24Z</time>
      </trkpt>
      <trkpt lat="45.07296" lon="2.74972">
        <ele>1429.62</ele>
        <time>2015-07-20T08:37:39Z</time>
      </trkpt>
      <trkpt lat="45.07285" lon="2.74977">
        <ele>1432.5</ele>
        <time>2015-07-20T08:37:56Z</time>
      </trkpt>
      <trkpt lat="45.07277" lon="2.74979">
        <ele>1433.94</ele>
        <time>2015-07-20T08:38:12Z</time>
      </trkpt>
      <trkpt lat="45.07267" lon="2.74989">
        <ele>1435.87</ele>
        <time>2015-07-20T08:38:28Z</time>
      </trkpt>
      <trkpt lat="45.07259" lon="2.75002">
        <ele>1440.19</ele>
        <time>2015-07-20T08:38:42Z</time>
      </trkpt>
      <trkpt lat="45.07252" lon="2.75013">
        <ele>1440.19</ele>
        <time>2015-07-20T08:38:54Z</time>
      </trkpt>
      <trkpt lat="45.07245" lon="2.75023">
        <ele>1439.23</ele>
        <time>2015-07-20T08:39:05Z</time>
      </trkpt>
      <trkpt lat="45.07237" lon="2.75033">
        <ele>1439.71</ele>
        <time>2015-07-20T08:39:18Z</time>
      </trkpt>
      <trkpt lat="45.07235" lon="2.75036">
        <ele>1440.19</ele>
        <time>2015-07-20T08:39:32Z</time>
      </trkpt>
      <trkpt lat="45.07234" lon="2.75038">
        <ele>1439.71</ele>
        <time>2015-07-20T08:39:34Z</time>
      </trkpt>
      <trkpt lat="45.07232" lon="2.75043">
        <ele>1440.19</ele>
        <time>2015-07-20T08:39:38Z</time>
      </trkpt>
      <trkpt lat="45.07225" lon="2.7506">
        <ele>1439.23</ele>
        <time>2015-07-20T08:39:52Z</time>
      </trkpt>
      <trkpt lat="45.07218" lon="2.7507">
        <ele>1438.27</ele>
        <time>2015-07-20T08:40:03Z</time>
      </trkpt>
      <trkpt lat="45.07215" lon="2.75075">
        <ele>1438.27</ele>
        <time>2015-07-20T08:40:13Z</time>
      </trkpt>
      <trkpt lat="45.07207" lon="2.75075">
        <ele>1437.79</ele>
        <time>2015-07-20T08:40:23Z</time>
      </trkpt>
      <trkpt lat="45.07202" lon="2.75077">
        <ele>1437.31</ele>
        <time>2015-07-20T08:40:28Z</time>
      </trkpt>
      <trkpt lat="45.07188" lon="2.75075">
        <ele>1434.91</ele>
        <time>2015-07-20T08:40:42Z</time>
      </trkpt>
      <trkpt lat="45.07173" lon="2.75076">
        <ele>1435.39</ele>
        <time>2015-07-20T08:40:56Z</time>
      </trkpt>
      <trkpt lat="45.07158" lon="2.75074">
        <ele>1436.35</ele>
        <time>2015-07-20T08:41:10Z</time>
      </trkpt>
      <trkpt lat="45.07154" lon="2.75071">
        <ele>1435.87</ele>
        <time>2015-07-20T08:41:15Z</time>
      </trkpt>
      <trkpt lat="45.07152" lon="2.7507">
        <ele>1436.35</ele>
        <time>2015-07-20T08:41:17Z</time>
      </trkpt>
      <trkpt lat="45.0715" lon="2.7507">
        <ele>1436.35</ele>
        <time>2015-07-20T08:41:19Z</time>
      </trkpt>
      <trkpt lat="45.07134" lon="2.75066">
        <ele>1437.31</ele>
        <time>2015-07-20T08:41:36Z</time>
      </trkpt>
      <trkpt lat="45.07132" lon="2.75066">
        <ele>1438.27</ele>
        <time>2015-07-20T08:41:40Z</time>
      </trkpt>
      <trkpt lat="45.07128" lon="2.75068">
        <ele>1438.75</ele>
        <time>2015-07-20T08:41:47Z</time>
      </trkpt>
      <trkpt lat="45.07129" lon="2.75072">
        <ele>1437.79</ele>
        <time>2015-07-20T08:41:52Z</time>
      </trkpt>
      <trkpt lat="45.07129" lon="2.75076">
        <ele>1437.31</ele>
        <time>2015-07-20T08:41:58Z</time>
      </trkpt>
      <trkpt lat="45.07118" lon="2.75067">
        <ele>1437.31</ele>
        <time>2015-07-20T08:42:12Z</time>
      </trkpt>
      <trkpt lat="45.07119" lon="2.75067">
        <ele>1437.31</ele>
        <time>2015-07-20T08:42:16Z</time>
      </trkpt>
      <trkpt lat="45.07118" lon="2.75071">
        <ele>1437.31</ele>
        <time>2015-07-20T08:42:29Z</time>
      </trkpt>
      <trkpt lat="45.07118" lon="2.7507">
        <ele>1437.79</ele>
        <time>2015-07-20T08:42:34Z</time>
      </trkpt>
      <trkpt lat="45.0711" lon="2.75063">
        <ele>1439.71</ele>
        <time>2015-07-20T08:42:42Z</time>
      </trkpt>
      <trkpt lat="45.07102" lon="2.75047">
        <ele>1441.15</ele>
        <time>2015-07-20T08:42:55Z</time>
      </trkpt>
      <trkpt lat="45.07095" lon="2.75031">
        <ele>1442.11</ele>
        <time>2015-07-20T08:43:09Z</time>
      </trkpt>
      <trkpt lat="45.07095" lon="2.7503">
        <ele>1442.11</ele>
        <time>2015-07-20T08:43:10Z</time>
      </trkpt>
      <trkpt lat="45.07094" lon="2.75021">
        <ele>1442.11</ele>
        <time>2015-07-20T08:43:16Z</time>
      </trkpt>
      <trkpt lat="45.0709" lon="2.75002">
        <ele>1442.11</ele>
        <time>2015-07-20T08:43:29Z</time>
      </trkpt>
      <trkpt lat="45.07087" lon="2.74984">
        <ele>1439.71</ele>
        <time>2015-07-20T08:43:42Z</time>
      </trkpt>
      <trkpt lat="45.07084" lon="2.74965">
        <ele>1437.31</ele>
        <time>2015-07-20T08:43:56Z</time>
      </trkpt>
      <trkpt lat="45.07081" lon="2.74954">
        <ele>1435.87</ele>
        <time>2015-07-20T08:44:04Z</time>
      </trkpt>
      <trkpt lat="45.07079" lon="2.7495">
        <ele>1435.39</ele>
        <time>2015-07-20T08:44:11Z</time>
      </trkpt>
      <trkpt lat="45.07073" lon="2.74953">
        <ele>1434.91</ele>
        <time>2015-07-20T08:44:21Z</time>
      </trkpt>
      <trkpt lat="45.07072" lon="2.74954">
        <ele>1435.87</ele>
        <time>2015-07-20T08:44:38Z</time>
      </trkpt>
      <trkpt lat="45.07072" lon="2.74954">
        <ele>1436.83</ele>
        <time>2015-07-20T08:44:57Z</time>
      </trkpt>
      <trkpt lat="45.07072" lon="2.74954">
        <ele>1436.83</ele>
        <time>2015-07-20T08:44:58Z</time>
      </trkpt>
      <trkpt lat="45.0706" lon="2.74956">
        <ele>1437.31</ele>
        <time>2015-07-20T08:45:11Z</time>
      </trkpt>
      <trkpt lat="45.07047" lon="2.74969">
        <ele>1438.75</ele>
        <time>2015-07-20T08:45:26Z</time>
      </trkpt>
      <trkpt lat="45.07035" lon="2.74981">
        <ele>1439.23</ele>
        <time>2015-07-20T08:45:40Z</time>
      </trkpt>
      <trkpt lat="45.07027" lon="2.74998">
        <ele>1439.71</ele>
        <time>2015-07-20T08:45:54Z</time>
      </trkpt>
      <trkpt lat="45.07026" lon="2.75">
        <ele>1439.71</ele>
        <time>2015-07-20T08:45:55Z</time>
      </trkpt>
      <trkpt lat="45.07023" lon="2.75023">
        <ele>1438.27</ele>
        <time>2015-07-20T08:46:12Z</time>
      </trkpt>
      <trkpt lat="45.07025" lon="2.75025">
        <ele>1438.27</ele>
        <time>2015-07-20T08:46:23Z</time>
      </trkpt>
      <trkpt lat="45.07026" lon="2.7503">
        <ele>1438.75</ele>
        <time>2015-07-20T08:46:27Z</time>
      </trkpt>
      <trkpt lat="45.07026" lon="2.75034">
        <ele>1438.75</ele>
        <time>2015-07-20T08:46:35Z</time>
      </trkpt>
      <trkpt lat="45.07028" lon="2.75051">
        <ele>1440.19</ele>
        <time>2015-07-20T08:46:47Z</time>
      </trkpt>
      <trkpt lat="45.07026" lon="2.7506">
        <ele>1440.19</ele>
        <time>2015-07-20T08:46:53Z</time>
      </trkpt>
      <trkpt lat="45.07025" lon="2.75064">
        <ele>1439.71</ele>
        <time>2015-07-20T08:46:56Z</time>
      </trkpt>
      <trkpt lat="45.07026" lon="2.75074">
        <ele>1439.23</ele>
        <time>2015-07-20T08:47:02Z</time>
      </trkpt>
      <trkpt lat="45.07026" lon="2.75078">
        <ele>1438.27</ele>
        <time>2015-07-20T08:47:05Z</time>
      </trkpt>
      <trkpt lat="45.07027" lon="2.7508">
        <ele>1438.27</ele>
        <time>2015-07-20T08:47:07Z</time>
      </trkpt>
      <trkpt lat="45.07025" lon="2.75091">
        <ele>1437.31</ele>
        <time>2015-07-20T08:47:20Z</time>
      </trkpt>
      <trkpt lat="45.07024" lon="2.75092">
        <ele>1437.79</ele>
        <time>2015-07-20T08:47:30Z</time>
      </trkpt>
      <trkpt lat="45.0702" lon="2.75097">
        <ele>1438.27</ele>
        <time>2015-07-20T08:47:35Z</time>
      </trkpt>
      <trkpt lat="45.07015" lon="2.75113">
        <ele>1438.27</ele>
        <time>2015-07-20T08:47:47Z</time>
      </trkpt>
      <trkpt lat="45.07015" lon="2.75117">
        <ele>1438.27</ele>
        <time>2015-07-20T08:47:50Z</time>
      </trkpt>
      <trkpt lat="45.07011" lon="2.75126">
        <ele>1438.27</ele>
        <time>2015-07-20T08:47:58Z</time>
      </trkpt>
      <trkpt lat="45.07008" lon="2.75139">
        <ele>1438.27</ele>
        <time>2015-07-20T08:48:11Z</time>
      </trkpt>
      <trkpt lat="45.07008" lon="2.75139">
        <ele>1438.75</ele>
        <time>2015-07-20T08:48:13Z</time>
      </trkpt>
      <trkpt lat="45.07005" lon="2.75144">
        <ele>1439.23</ele>
        <time>2015-07-20T08:48:18Z</time>
      </trkpt>
      <trkpt lat="45.07001" lon="2.75152">
        <ele>1440.19</ele>
        <time>2015-07-20T08:48:28Z</time>
      </trkpt>
      <trkpt lat="45.07002" lon="2.75152">
        <ele>1440.19</ele>
        <time>2015-07-20T08:48:35Z</time>
      </trkpt>
      <trkpt lat="45.07004" lon="2.75151">
        <ele>1440.19</ele>
        <time>2015-07-20T08:48:38Z</time>
      </trkpt>
      <trkpt lat="45.0699" lon="2.75167">
        <ele>1441.63</ele>
        <time>2015-07-20T08:48:55Z</time>
      </trkpt>
      <trkpt lat="45.06981" lon="2.75179">
        <ele>1443.08</ele>
        <time>2015-07-20T08:49:08Z</time>
      </trkpt>
      <trkpt lat="45.06974" lon="2.75192">
        <ele>1446.44</ele>
        <time>2015-07-20T08:49:18Z</time>
      </trkpt>
      <trkpt lat="45.0696" lon="2.75201">
        <ele>1446.44</ele>
        <time>2015-07-20T08:49:34Z</time>
      </trkpt>
      <trkpt lat="45.06952" lon="2.75213">
        <ele>1448.84</ele>
        <time>2015-07-20T08:49:47Z</time>
      </trkpt>
      <trkpt lat="45.06949" lon="2.75218">
        <ele>1449.81</ele>
        <time>2015-07-20T08:49:52Z</time>
      </trkpt>
      <trkpt lat="45.06943" lon="2.75222">
        <ele>1450.29</ele>
        <time>2015-07-20T08:50:06Z</time>
      </trkpt>
      <trkpt lat="45.06933" lon="2.75225">
        <ele>1449.81</ele>
        <time>2015-07-20T08:50:18Z</time>
      </trkpt>
      <trkpt lat="45.0693" lon="2.75227">
        <ele>1449.81</ele>
        <time>2015-07-20T08:50:22Z</time>
      </trkpt>
      <trkpt lat="45.06917" lon="2.7524">
        <ele>1449.81</ele>
        <time>2015-07-20T08:50:36Z</time>
      </trkpt>
      <trkpt lat="45.06914" lon="2.75244">
        <ele>1449.81</ele>
        <time>2015-07-20T08:50:40Z</time>
      </trkpt>
      <trkpt lat="45.06906" lon="2.75256">
        <ele>1451.25</ele>
        <time>2015-07-20T08:50:53Z</time>
      </trkpt>
      <trkpt lat="45.06906" lon="2.75259">
        <ele>1450.77</ele>
        <time>2015-07-20T08:50:55Z</time>
      </trkpt>
      <trkpt lat="45.06905" lon="2.75268">
        <ele>1451.25</ele>
        <time>2015-07-20T08:51:02Z</time>
      </trkpt>
      <trkpt lat="45.06902" lon="2.7528">
        <ele>1453.17</ele>
        <time>2015-07-20T08:51:13Z</time>
      </trkpt>
      <trkpt lat="45.06906" lon="2.75287">
        <ele>1454.13</ele>
        <time>2015-07-20T08:51:23Z</time>
      </trkpt>
      <trkpt lat="45.06908" lon="2.75284">
        <ele>1454.61</ele>
        <time>2015-07-20T08:51:33Z</time>
      </trkpt>
      <trkpt lat="45.06911" lon="2.75286">
        <ele>1456.05</ele>
        <time>2015-07-20T08:51:42Z</time>
      </trkpt>
      <trkpt lat="45.06911" lon="2.75285">
        <ele>1456.53</ele>
        <time>2015-07-20T08:51:59Z</time>
      </trkpt>
      <trkpt lat="45.06911" lon="2.75287">
        <ele>1457.02</ele>
        <time>2015-07-20T08:52:06Z</time>
      </trkpt>
      <trkpt lat="45.0691" lon="2.75291">
        <ele>1457.5</ele>
        <time>2015-07-20T08:52:09Z</time>
      </trkpt>
      <trkpt lat="45.06915" lon="2.75292">
        <ele>1458.94</ele>
        <time>2015-07-20T08:52:20Z</time>
      </trkpt>
      <trkpt lat="45.06919" lon="2.75295">
        <ele>1460.38</ele>
        <time>2015-07-20T08:52:28Z</time>
      </trkpt>
      <trkpt lat="45.06923" lon="2.75304">
        <ele>1462.3</ele>
        <time>2015-07-20T08:52:37Z</time>
      </trkpt>
      <trkpt lat="45.06926" lon="2.75308">
        <ele>1463.26</ele>
        <time>2015-07-20T08:52:41Z</time>
      </trkpt>
      <trkpt lat="45.06928" lon="2.75312">
        <ele>1464.23</ele>
        <time>2015-07-20T08:52:44Z</time>
      </trkpt>
      <trkpt lat="45.06931" lon="2.75313">
        <ele>1464.71</ele>
        <time>2015-07-20T08:52:47Z</time>
      </trkpt>
      <trkpt lat="45.06933" lon="2.75314">
        <ele>1465.19</ele>
        <time>2015-07-20T08:52:58Z</time>
      </trkpt>
      <trkpt lat="45.06933" lon="2.75313">
        <ele>1464.71</ele>
        <time>2015-07-20T08:53:03Z</time>
      </trkpt>
      <trkpt lat="45.06933" lon="2.75315">
        <ele>1465.67</ele>
        <time>2015-07-20T08:53:14Z</time>
      </trkpt>
      <trkpt lat="45.06938" lon="2.75317">
        <ele>1465.67</ele>
        <time>2015-07-20T08:53:26Z</time>
      </trkpt>
      <trkpt lat="45.06935" lon="2.75316">
        <ele>1466.15</ele>
        <time>2015-07-20T08:53:40Z</time>
      </trkpt>
      <trkpt lat="45.06935" lon="2.75316">
        <ele>1466.15</ele>
        <time>2015-07-20T08:53:42Z</time>
      </trkpt>
      <trkpt lat="45.06933" lon="2.75317">
        <ele>1465.19</ele>
        <time>2015-07-20T08:53:52Z</time>
      </trkpt>
      <trkpt lat="45.06935" lon="2.75319">
        <ele>1465.67</ele>
        <time>2015-07-20T08:54:04Z</time>
      </trkpt>
      <trkpt lat="45.06937" lon="2.75321">
        <ele>1465.19</ele>
        <time>2015-07-20T08:54:07Z</time>
      </trkpt>
      <trkpt lat="45.06939" lon="2.75324">
        <ele>1465.19</ele>
        <time>2015-07-20T08:54:11Z</time>
      </trkpt>
      <trkpt lat="45.06939" lon="2.75325">
        <ele>1465.19</ele>
        <time>2015-07-20T08:54:15Z</time>
      </trkpt>
      <trkpt lat="45.06941" lon="2.75327">
        <ele>1464.71</ele>
        <time>2015-07-20T08:54:30Z</time>
      </trkpt>
      <trkpt lat="45.06941" lon="2.75332">
        <ele>1463.26</ele>
        <time>2015-07-20T08:54:36Z</time>
      </trkpt>
      <trkpt lat="45.06936" lon="2.75338">
        <ele>1463.26</ele>
        <time>2015-07-20T08:54:46Z</time>
      </trkpt>
      <trkpt lat="45.06926" lon="2.75344">
        <ele>1465.19</ele>
        <time>2015-07-20T08:54:56Z</time>
      </trkpt>
      <trkpt lat="45.06919" lon="2.75349">
        <ele>1464.71</ele>
        <time>2015-07-20T08:55:04Z</time>
      </trkpt>
      <trkpt lat="45.06911" lon="2.75359">
        <ele>1466.15</ele>
        <time>2015-07-20T08:55:15Z</time>
      </trkpt>
      <trkpt lat="45.06908" lon="2.75366">
        <ele>1467.11</ele>
        <time>2015-07-20T08:55:21Z</time>
      </trkpt>
      <trkpt lat="45.06907" lon="2.75368">
        <ele>1467.11</ele>
        <time>2015-07-20T08:55:23Z</time>
      </trkpt>
      <trkpt lat="45.06903" lon="2.75375">
        <ele>1468.07</ele>
        <time>2015-07-20T08:55:30Z</time>
      </trkpt>
      <trkpt lat="45.06903" lon="2.75378">
        <ele>1468.07</ele>
        <time>2015-07-20T08:55:32Z</time>
      </trkpt>
      <trkpt lat="45.069" lon="2.75383">
        <ele>1468.07</ele>
        <time>2015-07-20T08:55:37Z</time>
      </trkpt>
      <trkpt lat="45.06894" lon="2.75394">
        <ele>1470.47</ele>
        <time>2015-07-20T08:55:49Z</time>
      </trkpt>
      <trkpt lat="45.06888" lon="2.75405">
        <ele>1471.44</ele>
        <time>2015-07-20T08:55:59Z</time>
      </trkpt>
      <trkpt lat="45.06884" lon="2.75409">
        <ele>1472.4</ele>
        <time>2015-07-20T08:56:05Z</time>
      </trkpt>
      <trkpt lat="45.06877" lon="2.75412">
        <ele>1473.36</ele>
        <time>2015-07-20T08:56:15Z</time>
      </trkpt>
      <trkpt lat="45.06877" lon="2.75416">
        <ele>1474.32</ele>
        <time>2015-07-20T08:56:18Z</time>
      </trkpt>
      <trkpt lat="45.06878" lon="2.75418">
        <ele>1474.32</ele>
        <time>2015-07-20T08:56:20Z</time>
      </trkpt>
      <trkpt lat="45.06875" lon="2.7543">
        <ele>1476.72</ele>
        <time>2015-07-20T08:56:31Z</time>
      </trkpt>
      <trkpt lat="45.06874" lon="2.75432">
        <ele>1477.2</ele>
        <time>2015-07-20T08:56:33Z</time>
      </trkpt>
      <trkpt lat="45.06868" lon="2.75443">
        <ele>1478.65</ele>
        <time>2015-07-20T08:56:45Z</time>
      </trkpt>
      <trkpt lat="45.06868" lon="2.75445">
        <ele>1478.65</ele>
        <time>2015-07-20T08:56:47Z</time>
      </trkpt>
      <trkpt lat="45.06867" lon="2.75447">
        <ele>1480.09</ele>
        <time>2015-07-20T08:56:58Z</time>
      </trkpt>
      <trkpt lat="45.06864" lon="2.75451">
        <ele>1480.57</ele>
        <time>2015-07-20T08:57:21Z</time>
      </trkpt>
      <trkpt lat="45.06864" lon="2.75452">
        <ele>1481.05</ele>
        <time>2015-07-20T08:57:22Z</time>
      </trkpt>
      <trkpt lat="45.06858" lon="2.75467">
        <ele>1482.97</ele>
        <time>2015-07-20T08:57:35Z</time>
      </trkpt>
      <trkpt lat="45.06857" lon="2.75471">
        <ele>1483.93</ele>
        <time>2015-07-20T08:57:39Z</time>
      </trkpt>
      <trkpt lat="45.06853" lon="2.7548">
        <ele>1486.34</ele>
        <time>2015-07-20T08:57:49Z</time>
      </trkpt>
      <trkpt lat="45.06851" lon="2.75485">
        <ele>1487.3</ele>
        <time>2015-07-20T08:57:54Z</time>
      </trkpt>
      <trkpt lat="45.06845" lon="2.75492">
        <ele>1487.78</ele>
        <time>2015-07-20T08:58:04Z</time>
      </trkpt>
      <trkpt lat="45.06844" lon="2.75503">
        <ele>1490.66</ele>
        <time>2015-07-20T08:58:16Z</time>
      </trkpt>
      <trkpt lat="45.06836" lon="2.75513">
        <ele>1492.58</ele>
        <time>2015-07-20T08:58:30Z</time>
      </trkpt>
      <trkpt lat="45.06836" lon="2.75514">
        <ele>1492.58</ele>
        <time>2015-07-20T08:58:33Z</time>
      </trkpt>
      <trkpt lat="45.06834" lon="2.75513">
        <ele>1492.58</ele>
        <time>2015-07-20T08:58:44Z</time>
      </trkpt>
      <trkpt lat="45.06834" lon="2.75514">
        <ele>1492.58</ele>
        <time>2015-07-20T08:59:03Z</time>
      </trkpt>
      <trkpt lat="45.06828" lon="2.7552">
        <ele>1493.55</ele>
        <time>2015-07-20T08:59:13Z</time>
      </trkpt>
      <trkpt lat="45.06823" lon="2.7553">
        <ele>1494.99</ele>
        <time>2015-07-20T08:59:26Z</time>
      </trkpt>
      <trkpt lat="45.06821" lon="2.75539">
        <ele>1497.39</ele>
        <time>2015-07-20T08:59:36Z</time>
      </trkpt>
      <trkpt lat="45.06814" lon="2.7555">
        <ele>1500.76</ele>
        <time>2015-07-20T08:59:48Z</time>
      </trkpt>
      <trkpt lat="45.06812" lon="2.75555">
        <ele>1501.24</ele>
        <time>2015-07-20T08:59:53Z</time>
      </trkpt>
      <trkpt lat="45.06809" lon="2.75566">
        <ele>1500.76</ele>
        <time>2015-07-20T09:00:03Z</time>
      </trkpt>
      <trkpt lat="45.06803" lon="2.75582">
        <ele>1502.2</ele>
        <time>2015-07-20T09:00:18Z</time>
      </trkpt>
      <trkpt lat="45.06804" lon="2.75589">
        <ele>1502.68</ele>
        <time>2015-07-20T09:00:31Z</time>
      </trkpt>
      <trkpt lat="45.06804" lon="2.75589">
        <ele>1503.16</ele>
        <time>2015-07-20T09:00:37Z</time>
      </trkpt>
      <trkpt lat="45.06802" lon="2.75594">
        <ele>1503.16</ele>
        <time>2015-07-20T09:00:49Z</time>
      </trkpt>
      <trkpt lat="45.068" lon="2.756">
        <ele>1504.12</ele>
        <time>2015-07-20T09:00:59Z</time>
      </trkpt>
      <trkpt lat="45.06796" lon="2.75608">
        <ele>1504.12</ele>
        <time>2015-07-20T09:01:09Z</time>
      </trkpt>
      <trkpt lat="45.06795" lon="2.75612">
        <ele>1503.64</ele>
        <time>2015-07-20T09:01:25Z</time>
      </trkpt>
      <trkpt lat="45.06789" lon="2.75621">
        <ele>1503.64</ele>
        <time>2015-07-20T09:01:36Z</time>
      </trkpt>
      <trkpt lat="45.06786" lon="2.75632">
        <ele>1504.6</ele>
        <time>2015-07-20T09:01:48Z</time>
      </trkpt>
      <trkpt lat="45.06785" lon="2.75643">
        <ele>1506.04</ele>
        <time>2015-07-20T09:02:00Z</time>
      </trkpt>
      <trkpt lat="45.0678" lon="2.75642">
        <ele>1508.93</ele>
        <time>2015-07-20T09:02:14Z</time>
      </trkpt>
      <trkpt lat="45.0678" lon="2.75643">
        <ele>1508.93</ele>
        <time>2015-07-20T09:02:17Z</time>
      </trkpt>
      <trkpt lat="45.06777" lon="2.75651">
        <ele>1509.41</ele>
        <time>2015-07-20T09:02:29Z</time>
      </trkpt>
      <trkpt lat="45.06771" lon="2.75654">
        <ele>1510.85</ele>
        <time>2015-07-20T09:02:40Z</time>
      </trkpt>
      <trkpt lat="45.06763" lon="2.75658">
        <ele>1512.29</ele>
        <time>2015-07-20T09:02:51Z</time>
      </trkpt>
      <trkpt lat="45.06759" lon="2.75658">
        <ele>1511.81</ele>
        <time>2015-07-20T09:03:02Z</time>
      </trkpt>
      <trkpt lat="45.06755" lon="2.75663">
        <ele>1510.37</ele>
        <time>2015-07-20T09:03:14Z</time>
      </trkpt>
      <trkpt lat="45.06754" lon="2.75668">
        <ele>1513.73</ele>
        <time>2015-07-20T09:03:26Z</time>
      </trkpt>
      <trkpt lat="45.0675" lon="2.75676">
        <ele>1519.02</ele>
        <time>2015-07-20T09:03:39Z</time>
      </trkpt>
      <trkpt lat="45.06747" lon="2.75683">
        <ele>1520.94</ele>
        <time>2015-07-20T09:03:48Z</time>
      </trkpt>
      <trkpt lat="45.06747" lon="2.75687">
        <ele>1521.9</ele>
        <time>2015-07-20T09:03:58Z</time>
      </trkpt>
      <trkpt lat="45.06745" lon="2.7569">
        <ele>1521.9</ele>
        <time>2015-07-20T09:04:08Z</time>
      </trkpt>
      <trkpt lat="45.06737" lon="2.75694">
        <ele>1522.39</ele>
        <time>2015-07-20T09:04:17Z</time>
      </trkpt>
      <trkpt lat="45.06736" lon="2.757">
        <ele>1522.87</ele>
        <time>2015-07-20T09:04:28Z</time>
      </trkpt>
      <trkpt lat="45.06733" lon="2.75703">
        <ele>1524.79</ele>
        <time>2015-07-20T09:04:39Z</time>
      </trkpt>
      <trkpt lat="45.06735" lon="2.75711">
        <ele>1526.23</ele>
        <time>2015-07-20T09:04:50Z</time>
      </trkpt>
      <trkpt lat="45.06732" lon="2.75716">
        <ele>1529.11</ele>
        <time>2015-07-20T09:05:00Z</time>
      </trkpt>
      <trkpt lat="45.0673" lon="2.75726">
        <ele>1530.56</ele>
        <time>2015-07-20T09:05:10Z</time>
      </trkpt>
      <trkpt lat="45.06727" lon="2.75735">
        <ele>1530.08</ele>
        <time>2015-07-20T09:05:21Z</time>
      </trkpt>
      <trkpt lat="45.06726" lon="2.75737">
        <ele>1530.56</ele>
        <time>2015-07-20T09:05:25Z</time>
      </trkpt>
      <trkpt lat="45.06725" lon="2.75744">
        <ele>1531.52</ele>
        <time>2015-07-20T09:05:33Z</time>
      </trkpt>
      <trkpt lat="45.06719" lon="2.75751">
        <ele>1532.96</ele>
        <time>2015-07-20T09:05:45Z</time>
      </trkpt>
      <trkpt lat="45.06718" lon="2.75753">
        <ele>1533.44</ele>
        <time>2015-07-20T09:05:54Z</time>
      </trkpt>
      <trkpt lat="45.06716" lon="2.75755">
        <ele>1533.44</ele>
        <time>2015-07-20T09:05:58Z</time>
      </trkpt>
      <trkpt lat="45.06712" lon="2.75758">
        <ele>1533.92</ele>
        <time>2015-07-20T09:06:08Z</time>
      </trkpt>
      <trkpt lat="45.06708" lon="2.75763">
        <ele>1534.88</ele>
        <time>2015-07-20T09:06:19Z</time>
      </trkpt>
      <trkpt lat="45.06706" lon="2.75765">
        <ele>1537.77</ele>
        <time>2015-07-20T09:06:30Z</time>
      </trkpt>
      <trkpt lat="45.06706" lon="2.75765">
        <ele>1538.73</ele>
        <time>2015-07-20T09:06:46Z</time>
      </trkpt>
      <trkpt lat="45.06706" lon="2.75765">
        <ele>1540.17</ele>
        <time>2015-07-20T09:07:00Z</time>
      </trkpt>
      <trkpt lat="45.06707" lon="2.75765">
        <ele>1541.61</ele>
        <time>2015-07-20T09:07:29Z</time>
      </trkpt>
      <trkpt lat="45.06709" lon="2.75771">
        <ele>1542.09</ele>
        <time>2015-07-20T09:07:39Z</time>
      </trkpt>
      <trkpt lat="45.06709" lon="2.75772">
        <ele>1542.09</ele>
        <time>2015-07-20T09:08:05Z</time>
      </trkpt>
      <trkpt lat="45.06709" lon="2.75773">
        <ele>1542.09</ele>
        <time>2015-07-20T09:08:27Z</time>
      </trkpt>
      <trkpt lat="45.06708" lon="2.75777">
        <ele>1542.57</ele>
        <time>2015-07-20T09:08:48Z</time>
      </trkpt>
      <trkpt lat="45.06707" lon="2.75782">
        <ele>1543.53</ele>
        <time>2015-07-20T09:08:55Z</time>
      </trkpt>
      <trkpt lat="45.06706" lon="2.75786">
        <ele>1544.98</ele>
        <time>2015-07-20T09:09:01Z</time>
      </trkpt>
      <trkpt lat="45.06705" lon="2.75792">
        <ele>1551.22</ele>
        <time>2015-07-20T09:09:12Z</time>
      </trkpt>
      <trkpt lat="45.06704" lon="2.75796">
        <ele>1556.03</ele>
        <time>2015-07-20T09:09:21Z</time>
      </trkpt>
      <trkpt lat="45.067" lon="2.75801">
        <ele>1560.84</ele>
        <time>2015-07-20T09:09:32Z</time>
      </trkpt>
      <trkpt lat="45.067" lon="2.75806">
        <ele>1563.24</ele>
        <time>2015-07-20T09:09:39Z</time>
      </trkpt>
      <trkpt lat="45.06696" lon="2.7581">
        <ele>1569.01</ele>
        <time>2015-07-20T09:09:51Z</time>
      </trkpt>
      <trkpt lat="45.06695" lon="2.7581">
        <ele>1569.97</ele>
        <time>2015-07-20T09:09:53Z</time>
      </trkpt>
      <trkpt lat="45.06693" lon="2.75814">
        <ele>1572.37</ele>
        <time>2015-07-20T09:10:02Z</time>
      </trkpt>
      <trkpt lat="45.06691" lon="2.75818">
        <ele>1575.26</ele>
        <time>2015-07-20T09:10:11Z</time>
      </trkpt>
      <trkpt lat="45.06686" lon="2.75824">
        <ele>1578.62</ele>
        <time>2015-07-20T09:10:25Z</time>
      </trkpt>
      <trkpt lat="45.06682" lon="2.75827">
        <ele>1581.03</ele>
        <time>2015-07-20T09:10:35Z</time>
      </trkpt>
      <trkpt lat="45.06678" lon="2.75834">
        <ele>1584.39</ele>
        <time>2015-07-20T09:10:46Z</time>
      </trkpt>
      <trkpt lat="45.06676" lon="2.75835">
        <ele>1586.31</ele>
        <time>2015-07-20T09:10:51Z</time>
      </trkpt>
      <trkpt lat="45.0667" lon="2.75837">
        <ele>1588.72</ele>
        <time>2015-07-20T09:11:01Z</time>
      </trkpt>
      <trkpt lat="45.0667" lon="2.75839">
        <ele>1589.2</ele>
        <time>2015-07-20T09:11:21Z</time>
      </trkpt>
      <trkpt lat="45.06669" lon="2.75844">
        <ele>1588.72</ele>
        <time>2015-07-20T09:11:34Z</time>
      </trkpt>
      <trkpt lat="45.06668" lon="2.75847">
        <ele>1587.75</ele>
        <time>2015-07-20T09:11:46Z</time>
      </trkpt>
      <trkpt lat="45.0667" lon="2.75847">
        <ele>1583.91</ele>
        <time>2015-07-20T09:12:06Z</time>
      </trkpt>
      <trkpt lat="45.0667" lon="2.75848">
        <ele>1582.95</ele>
        <time>2015-07-20T09:12:28Z</time>
      </trkpt>
      <trkpt lat="45.06669" lon="2.75848">
        <ele>1583.91</ele>
        <time>2015-07-20T09:12:50Z</time>
      </trkpt>
      <trkpt lat="45.0667" lon="2.75848">
        <ele>1583.43</ele>
        <time>2015-07-20T09:13:08Z</time>
      </trkpt>
      <trkpt lat="45.0667" lon="2.75847">
        <ele>1583.43</ele>
        <time>2015-07-20T09:13:38Z</time>
      </trkpt>
      <trkpt lat="45.0667" lon="2.75847">
        <ele>1583.91</ele>
        <time>2015-07-20T09:14:15Z</time>
      </trkpt>
      <trkpt lat="45.0667" lon="2.75847">
        <ele>1583.91</ele>
        <time>2015-07-20T09:14:46Z</time>
      </trkpt>
      <trkpt lat="45.06669" lon="2.75847">
        <ele>1583.91</ele>
        <time>2015-07-20T09:15:14Z</time>
      </trkpt>
      <trkpt lat="45.06669" lon="2.75848">
        <ele>1583.91</ele>
        <time>2015-07-20T09:15:38Z</time>
      </trkpt>
      <trkpt lat="45.06669" lon="2.75847">
        <ele>1583.43</ele>
        <time>2015-07-20T09:15:54Z</time>
      </trkpt>
      <trkpt lat="45.06669" lon="2.75848">
        <ele>1583.43</ele>
        <time>2015-07-20T09:16:05Z</time>
      </trkpt>
      <trkpt lat="45.06664" lon="2.75857">
        <ele>1583.43</ele>
        <time>2015-07-20T09:16:19Z</time>
      </trkpt>
      <trkpt lat="45.06659" lon="2.75858">
        <ele>1582.95</ele>
        <time>2015-07-20T09:16:32Z</time>
      </trkpt>
      <trkpt lat="45.06658" lon="2.75861">
        <ele>1583.91</ele>
        <time>2015-07-20T09:16:42Z</time>
      </trkpt>
      <trkpt lat="45.06656" lon="2.75867">
        <ele>1584.87</ele>
        <time>2015-07-20T09:16:51Z</time>
      </trkpt>
      <trkpt lat="45.06656" lon="2.75875">
        <ele>1588.24</ele>
        <time>2015-07-20T09:17:03Z</time>
      </trkpt>
      <trkpt lat="45.06653" lon="2.7588">
        <ele>1591.6</ele>
        <time>2015-07-20T09:17:14Z</time>
      </trkpt>
      <trkpt lat="45.06648" lon="2.75884">
        <ele>1594.48</ele>
        <time>2015-07-20T09:17:25Z</time>
      </trkpt>
      <trkpt lat="45.06648" lon="2.75885">
        <ele>1594.96</ele>
        <time>2015-07-20T09:17:35Z</time>
      </trkpt>
      <trkpt lat="45.06645" lon="2.75888">
        <ele>1596.41</ele>
        <time>2015-07-20T09:17:49Z</time>
      </trkpt>
      <trkpt lat="45.06641" lon="2.75889">
        <ele>1597.37</ele>
        <time>2015-07-20T09:18:00Z</time>
      </trkpt>
      <trkpt lat="45.06642" lon="2.7589">
        <ele>1598.33</ele>
        <time>2015-07-20T09:18:07Z</time>
      </trkpt>
      <trkpt lat="45.06645" lon="2.75893">
        <ele>1598.33</ele>
        <time>2015-07-20T09:18:15Z</time>
      </trkpt>
      <trkpt lat="45.0665" lon="2.75891">
        <ele>1597.85</ele>
        <time>2015-07-20T09:18:20Z</time>
      </trkpt>
      <trkpt lat="45.06651" lon="2.75887">
        <ele>1596.89</ele>
        <time>2015-07-20T09:18:22Z</time>
      </trkpt>
      <trkpt lat="45.06653" lon="2.75886">
        <ele>1594.96</ele>
        <time>2015-07-20T09:18:32Z</time>
      </trkpt>
      <trkpt lat="45.06653" lon="2.75895">
        <ele>1596.89</ele>
        <time>2015-07-20T09:18:43Z</time>
      </trkpt>
      <trkpt lat="45.06652" lon="2.75898">
        <ele>1599.77</ele>
        <time>2015-07-20T09:18:52Z</time>
      </trkpt>
      <trkpt lat="45.06651" lon="2.75902">
        <ele>1600.73</ele>
        <time>2015-07-20T09:18:57Z</time>
      </trkpt>
      <trkpt lat="45.0665" lon="2.75906">
        <ele>1603.14</ele>
        <time>2015-07-20T09:19:05Z</time>
      </trkpt>
      <trkpt lat="45.06648" lon="2.75908">
        <ele>1603.14</ele>
        <time>2015-07-20T09:19:18Z</time>
      </trkpt>
      <trkpt lat="45.06647" lon="2.75908">
        <ele>1604.1</ele>
        <time>2015-07-20T09:19:50Z</time>
      </trkpt>
      <trkpt lat="45.06647" lon="2.75908">
        <ele>1604.58</ele>
        <time>2015-07-20T09:20:08Z</time>
      </trkpt>
      <trkpt lat="45.06644" lon="2.75912">
        <ele>1605.06</ele>
        <time>2015-07-20T09:20:20Z</time>
      </trkpt>
      <trkpt lat="45.06644" lon="2.75912">
        <ele>1605.54</ele>
        <time>2015-07-20T09:20:21Z</time>
      </trkpt>
      <trkpt lat="45.06641" lon="2.75921">
        <ele>1606.98</ele>
        <time>2015-07-20T09:20:33Z</time>
      </trkpt>
      <trkpt lat="45.06637" lon="2.75925">
        <ele>1608.9</ele>
        <time>2015-07-20T09:20:42Z</time>
      </trkpt>
      <trkpt lat="45.06634" lon="2.75932">
        <ele>1611.31</ele>
        <time>2015-07-20T09:20:52Z</time>
      </trkpt>
      <trkpt lat="45.0663" lon="2.75936">
        <ele>1613.23</ele>
        <time>2015-07-20T09:21:02Z</time>
      </trkpt>
      <trkpt lat="45.06628" lon="2.75938">
        <ele>1614.67</ele>
        <time>2015-07-20T09:21:15Z</time>
      </trkpt>
      <trkpt lat="45.06627" lon="2.75939">
        <ele>1616.59</ele>
        <time>2015-07-20T09:21:33Z</time>
      </trkpt>
      <trkpt lat="45.06626" lon="2.75938">
        <ele>1617.07</ele>
        <time>2015-07-20T09:21:51Z</time>
      </trkpt>
      <trkpt lat="45.06626" lon="2.75942">
        <ele>1618.04</ele>
        <time>2015-07-20T09:22:13Z</time>
      </trkpt>
      <trkpt lat="45.06626" lon="2.75951">
        <ele>1620.44</ele>
        <time>2015-07-20T09:22:25Z</time>
      </trkpt>
      <trkpt lat="45.06627" lon="2.7596">
        <ele>1621.4</ele>
        <time>2015-07-20T09:22:35Z</time>
      </trkpt>
      <trkpt lat="45.0663" lon="2.75972">
        <ele>1623.32</ele>
        <time>2015-07-20T09:22:49Z</time>
      </trkpt>
      <trkpt lat="45.06633" lon="2.75981">
        <ele>1625.73</ele>
        <time>2015-07-20T09:23:02Z</time>
      </trkpt>
      <trkpt lat="45.06635" lon="2.75986">
        <ele>1628.13</ele>
        <time>2015-07-20T09:23:12Z</time>
      </trkpt>
      <trkpt lat="45.06638" lon="2.75991">
        <ele>1630.53</ele>
        <time>2015-07-20T09:23:22Z</time>
      </trkpt>
      <trkpt lat="45.06641" lon="2.76">
        <ele>1632.94</ele>
        <time>2015-07-20T09:23:35Z</time>
      </trkpt>
      <trkpt lat="45.06642" lon="2.76004">
        <ele>1634.38</ele>
        <time>2015-07-20T09:23:47Z</time>
      </trkpt>
      <trkpt lat="45.06642" lon="2.76008">
        <ele>1635.82</ele>
        <time>2015-07-20T09:24:04Z</time>
      </trkpt>
      <trkpt lat="45.06642" lon="2.76011">
        <ele>1636.78</ele>
        <time>2015-07-20T09:24:18Z</time>
      </trkpt>
      <trkpt lat="45.06646" lon="2.76021">
        <ele>1640.63</ele>
        <time>2015-07-20T09:24:30Z</time>
      </trkpt>
      <trkpt lat="45.06648" lon="2.76028">
        <ele>1643.03</ele>
        <time>2015-07-20T09:24:40Z</time>
      </trkpt>
      <trkpt lat="45.0665" lon="2.76036">
        <ele>1644.95</ele>
        <time>2015-07-20T09:24:50Z</time>
      </trkpt>
      <trkpt lat="45.06652" lon="2.76042">
        <ele>1647.84</ele>
        <time>2015-07-20T09:25:00Z</time>
      </trkpt>
      <trkpt lat="45.06652" lon="2.7605">
        <ele>1650.24</ele>
        <time>2015-07-20T09:25:13Z</time>
      </trkpt>
      <trkpt lat="45.06654" lon="2.76056">
        <ele>1651.68</ele>
        <time>2015-07-20T09:25:20Z</time>
      </trkpt>
      <trkpt lat="45.06658" lon="2.76064">
        <ele>1653.12</ele>
        <time>2015-07-20T09:25:34Z</time>
      </trkpt>
      <trkpt lat="45.0666" lon="2.76072">
        <ele>1654.57</ele>
        <time>2015-07-20T09:25:46Z</time>
      </trkpt>
      <trkpt lat="45.06661" lon="2.76078">
        <ele>1656.01</ele>
        <time>2015-07-20T09:25:54Z</time>
      </trkpt>
      <trkpt lat="45.06665" lon="2.76085">
        <ele>1657.93</ele>
        <time>2015-07-20T09:26:03Z</time>
      </trkpt>
      <trkpt lat="45.06666" lon="2.76088">
        <ele>1658.89</ele>
        <time>2015-07-20T09:26:10Z</time>
      </trkpt>
      <trkpt lat="45.06666" lon="2.76095">
        <ele>1661.3</ele>
        <time>2015-07-20T09:26:21Z</time>
      </trkpt>
      <trkpt lat="45.06666" lon="2.76101">
        <ele>1660.33</ele>
        <time>2015-07-20T09:26:41Z</time>
      </trkpt>
      <trkpt lat="45.06666" lon="2.76102">
        <ele>1661.3</ele>
        <time>2015-07-20T09:26:46Z</time>
      </trkpt>
      <trkpt lat="45.06668" lon="2.76109">
        <ele>1663.22</ele>
        <time>2015-07-20T09:26:57Z</time>
      </trkpt>
      <trkpt lat="45.0667" lon="2.76119">
        <ele>1666.1</ele>
        <time>2015-07-20T09:27:08Z</time>
      </trkpt>
      <trkpt lat="45.06667" lon="2.76123">
        <ele>1666.1</ele>
        <time>2015-07-20T09:27:21Z</time>
      </trkpt>
      <trkpt lat="45.06667" lon="2.76123">
        <ele>1665.14</ele>
        <time>2015-07-20T09:27:40Z</time>
      </trkpt>
      <trkpt lat="45.06667" lon="2.76124">
        <ele>1663.7</ele>
        <time>2015-07-20T09:28:02Z</time>
      </trkpt>
      <trkpt lat="45.06666" lon="2.76124">
        <ele>1663.22</ele>
        <time>2015-07-20T09:28:26Z</time>
      </trkpt>
      <trkpt lat="45.06661" lon="2.76123">
        <ele>1663.7</ele>
        <time>2015-07-20T09:28:41Z</time>
      </trkpt>
      <trkpt lat="45.06654" lon="2.76118">
        <ele>1665.62</ele>
        <time>2015-07-20T09:28:52Z</time>
      </trkpt>
      <trkpt lat="45.06644" lon="2.7611">
        <ele>1667.54</ele>
        <time>2015-07-20T09:29:06Z</time>
      </trkpt>
      <trkpt lat="45.06642" lon="2.76109">
        <ele>1667.54</ele>
        <time>2015-07-20T09:29:09Z</time>
      </trkpt>
      <trkpt lat="45.06637" lon="2.76103">
        <ele>1669.47</ele>
        <time>2015-07-20T09:29:19Z</time>
      </trkpt>
      <trkpt lat="45.0663" lon="2.76098">
        <ele>1671.87</ele>
        <time>2015-07-20T09:29:30Z</time>
      </trkpt>
      <trkpt lat="45.0662" lon="2.76091">
        <ele>1673.79</ele>
        <time>2015-07-20T09:29:45Z</time>
      </trkpt>
      <trkpt lat="45.06619" lon="2.7609">
        <ele>1674.27</ele>
        <time>2015-07-20T09:29:47Z</time>
      </trkpt>
      <trkpt lat="45.06614" lon="2.76082">
        <ele>1675.23</ele>
        <time>2015-07-20T09:29:58Z</time>
      </trkpt>
      <trkpt lat="45.06612" lon="2.76081">
        <ele>1674.75</ele>
        <time>2015-07-20T09:30:05Z</time>
      </trkpt>
      <trkpt lat="45.06603" lon="2.76079">
        <ele>1677.64</ele>
        <time>2015-07-20T09:30:16Z</time>
      </trkpt>
      <trkpt lat="45.06596" lon="2.76077">
        <ele>1679.56</ele>
        <time>2015-07-20T09:30:25Z</time>
      </trkpt>
      <trkpt lat="45.06586" lon="2.76076">
        <ele>1681.48</ele>
        <time>2015-07-20T09:30:38Z</time>
      </trkpt>
      <trkpt lat="45.06585" lon="2.76076">
        <ele>1681.48</ele>
        <time>2015-07-20T09:30:39Z</time>
      </trkpt>
      <trkpt lat="45.06576" lon="2.76075">
        <ele>1681</ele>
        <time>2015-07-20T09:30:51Z</time>
      </trkpt>
      <trkpt lat="45.06566" lon="2.76074">
        <ele>1682.93</ele>
        <time>2015-07-20T09:31:04Z</time>
      </trkpt>
      <trkpt lat="45.06561" lon="2.76073">
        <ele>1683.41</ele>
        <time>2015-07-20T09:31:11Z</time>
      </trkpt>
      <trkpt lat="45.06556" lon="2.76073">
        <ele>1683.41</ele>
        <time>2015-07-20T09:31:16Z</time>
      </trkpt>
      <trkpt lat="45.06548" lon="2.76067">
        <ele>1684.85</ele>
        <time>2015-07-20T09:31:26Z</time>
      </trkpt>
      <trkpt lat="45.06539" lon="2.76064">
        <ele>1687.73</ele>
        <time>2015-07-20T09:31:37Z</time>
      </trkpt>
      <trkpt lat="45.06536" lon="2.76063">
        <ele>1689.65</ele>
        <time>2015-07-20T09:31:41Z</time>
      </trkpt>
      <trkpt lat="45.06533" lon="2.76063">
        <ele>1691.1</ele>
        <time>2015-07-20T09:31:44Z</time>
      </trkpt>
      <trkpt lat="45.0653" lon="2.76064">
        <ele>1692.06</ele>
        <time>2015-07-20T09:31:46Z</time>
      </trkpt>
      <trkpt lat="45.06525" lon="2.76068">
        <ele>1696.38</ele>
        <time>2015-07-20T09:31:57Z</time>
      </trkpt>
      <trkpt lat="45.06526" lon="2.76067">
        <ele>1696.38</ele>
        <time>2015-07-20T09:32:08Z</time>
      </trkpt>
      <trkpt lat="45.06526" lon="2.76066">
        <ele>1695.42</ele>
        <time>2015-07-20T09:32:24Z</time>
      </trkpt>
      <trkpt lat="45.06527" lon="2.76073">
        <ele>1699.27</ele>
        <time>2015-07-20T09:32:36Z</time>
      </trkpt>
      <trkpt lat="45.06528" lon="2.76076">
        <ele>1701.19</ele>
        <time>2015-07-20T09:32:40Z</time>
      </trkpt>
      <trkpt lat="45.06533" lon="2.76082">
        <ele>1702.63</ele>
        <time>2015-07-20T09:32:45Z</time>
      </trkpt>
      <trkpt lat="45.06539" lon="2.76086">
        <ele>1703.11</ele>
        <time>2015-07-20T09:32:53Z</time>
      </trkpt>
      <trkpt lat="45.06547" lon="2.76095">
        <ele>1704.07</ele>
        <time>2015-07-20T09:33:05Z</time>
      </trkpt>
      <trkpt lat="45.06556" lon="2.76102">
        <ele>1704.55</ele>
        <time>2015-07-20T09:33:17Z</time>
      </trkpt>
      <trkpt lat="45.06563" lon="2.76108">
        <ele>1705.04</ele>
        <time>2015-07-20T09:33:26Z</time>
      </trkpt>
      <trkpt lat="45.06574" lon="2.76116">
        <ele>1706</ele>
        <time>2015-07-20T09:33:40Z</time>
      </trkpt>
      <trkpt lat="45.06575" lon="2.76117">
        <ele>1706.48</ele>
        <time>2015-07-20T09:33:41Z</time>
      </trkpt>
      <trkpt lat="45.06585" lon="2.76125">
        <ele>1710.8</ele>
        <time>2015-07-20T09:33:53Z</time>
      </trkpt>
      <trkpt lat="45.06586" lon="2.76126">
        <ele>1711.28</ele>
        <time>2015-07-20T09:33:54Z</time>
      </trkpt>
      <trkpt lat="45.06593" lon="2.76139">
        <ele>1714.17</ele>
        <time>2015-07-20T09:34:07Z</time>
      </trkpt>
      <trkpt lat="45.06597" lon="2.7615">
        <ele>1716.57</ele>
        <time>2015-07-20T09:34:18Z</time>
      </trkpt>
      <trkpt lat="45.06599" lon="2.76158">
        <ele>1716.57</ele>
        <time>2015-07-20T09:34:31Z</time>
      </trkpt>
      <trkpt lat="45.066" lon="2.76164">
        <ele>1717.05</ele>
        <time>2015-07-20T09:34:46Z</time>
      </trkpt>
      <trkpt lat="45.06604" lon="2.76171">
        <ele>1718.97</ele>
        <time>2015-07-20T09:34:53Z</time>
      </trkpt>
      <trkpt lat="45.06608" lon="2.7618">
        <ele>1720.9</ele>
        <time>2015-07-20T09:35:03Z</time>
      </trkpt>
      <trkpt lat="45.06611" lon="2.76184">
        <ele>1721.38</ele>
        <time>2015-07-20T09:35:07Z</time>
      </trkpt>
      <trkpt lat="45.06615" lon="2.76195">
        <ele>1722.34</ele>
        <time>2015-07-20T09:35:18Z</time>
      </trkpt>
      <trkpt lat="45.0662" lon="2.76206">
        <ele>1722.34</ele>
        <time>2015-07-20T09:35:30Z</time>
      </trkpt>
      <trkpt lat="45.06623" lon="2.76217">
        <ele>1723.3</ele>
        <time>2015-07-20T09:35:41Z</time>
      </trkpt>
      <trkpt lat="45.06622" lon="2.7622">
        <ele>1723.3</ele>
        <time>2015-07-20T09:35:55Z</time>
      </trkpt>
      <trkpt lat="45.06623" lon="2.76225">
        <ele>1724.26</ele>
        <time>2015-07-20T09:36:12Z</time>
      </trkpt>
      <trkpt lat="45.06626" lon="2.76229">
        <ele>1725.22</ele>
        <time>2015-07-20T09:36:16Z</time>
      </trkpt>
      <trkpt lat="45.06634" lon="2.76237">
        <ele>1725.7</ele>
        <time>2015-07-20T09:36:27Z</time>
      </trkpt>
      <trkpt lat="45.06641" lon="2.76248">
        <ele>1727.15</ele>
        <time>2015-07-20T09:36:38Z</time>
      </trkpt>
      <trkpt lat="45.06645" lon="2.76253">
        <ele>1727.63</ele>
        <time>2015-07-20T09:36:45Z</time>
      </trkpt>
      <trkpt lat="45.06648" lon="2.76254">
        <ele>1728.11</ele>
        <time>2015-07-20T09:36:48Z</time>
      </trkpt>
      <trkpt lat="45.06654" lon="2.76262">
        <ele>1731.95</ele>
        <time>2015-07-20T09:37:01Z</time>
      </trkpt>
      <trkpt lat="45.06662" lon="2.7627">
        <ele>1735.8</ele>
        <time>2015-07-20T09:37:12Z</time>
      </trkpt>
      <trkpt lat="45.0667" lon="2.76277">
        <ele>1737.72</ele>
        <time>2015-07-20T09:37:24Z</time>
      </trkpt>
      <trkpt lat="45.0667" lon="2.76279">
        <ele>1737.72</ele>
        <time>2015-07-20T09:37:25Z</time>
      </trkpt>
      <trkpt lat="45.06674" lon="2.76287">
        <ele>1738.2</ele>
        <time>2015-07-20T09:37:32Z</time>
      </trkpt>
      <trkpt lat="45.06675" lon="2.76291">
        <ele>1739.16</ele>
        <time>2015-07-20T09:37:46Z</time>
      </trkpt>
      <trkpt lat="45.06675" lon="2.7629">
        <ele>1739.16</ele>
        <time>2015-07-20T09:38:05Z</time>
      </trkpt>
      <trkpt lat="45.06674" lon="2.7629">
        <ele>1738.2</ele>
        <time>2015-07-20T09:38:17Z</time>
      </trkpt>
      <trkpt lat="45.06664" lon="2.76292">
        <ele>1738.68</ele>
        <time>2015-07-20T09:38:26Z</time>
      </trkpt>
      <trkpt lat="45.06662" lon="2.7629">
        <ele>1738.68</ele>
        <time>2015-07-20T09:38:29Z</time>
      </trkpt>
      <trkpt lat="45.0666" lon="2.76287">
        <ele>1738.68</ele>
        <time>2015-07-20T09:38:39Z</time>
      </trkpt>
      <trkpt lat="45.06651" lon="2.76289">
        <ele>1740.12</ele>
        <time>2015-07-20T09:38:53Z</time>
      </trkpt>
      <trkpt lat="45.06648" lon="2.76289">
        <ele>1741.08</ele>
        <time>2015-07-20T09:38:57Z</time>
      </trkpt>
      <trkpt lat="45.06639" lon="2.76283">
        <ele>1742.53</ele>
        <time>2015-07-20T09:39:09Z</time>
      </trkpt>
      <trkpt lat="45.06629" lon="2.76278">
        <ele>1743.97</ele>
        <time>2015-07-20T09:39:20Z</time>
      </trkpt>
      <trkpt lat="45.06627" lon="2.76277">
        <ele>1743.97</ele>
        <time>2015-07-20T09:39:22Z</time>
      </trkpt>
      <trkpt lat="45.06623" lon="2.76273">
        <ele>1744.45</ele>
        <time>2015-07-20T09:39:28Z</time>
      </trkpt>
      <trkpt lat="45.06609" lon="2.76267">
        <ele>1747.33</ele>
        <time>2015-07-20T09:39:43Z</time>
      </trkpt>
      <trkpt lat="45.06602" lon="2.76262">
        <ele>1747.33</ele>
        <time>2015-07-20T09:39:53Z</time>
      </trkpt>
      <trkpt lat="45.06592" lon="2.76259">
        <ele>1750.22</ele>
        <time>2015-07-20T09:40:06Z</time>
      </trkpt>
      <trkpt lat="45.06585" lon="2.76255">
        <ele>1751.66</ele>
        <time>2015-07-20T09:40:16Z</time>
      </trkpt>
      <trkpt lat="45.06575" lon="2.7625">
        <ele>1753.58</ele>
        <time>2015-07-20T09:40:28Z</time>
      </trkpt>
      <trkpt lat="45.06573" lon="2.7625">
        <ele>1754.06</ele>
        <time>2015-07-20T09:40:30Z</time>
      </trkpt>
      <trkpt lat="45.06571" lon="2.76249">
        <ele>1753.58</ele>
        <time>2015-07-20T09:40:32Z</time>
      </trkpt>
      <trkpt lat="45.06564" lon="2.76245">
        <ele>1753.58</ele>
        <time>2015-07-20T09:40:42Z</time>
      </trkpt>
      <trkpt lat="45.06552" lon="2.7624">
        <ele>1755.5</ele>
        <time>2015-07-20T09:40:55Z</time>
      </trkpt>
      <trkpt lat="45.06546" lon="2.76238">
        <ele>1756.95</ele>
        <time>2015-07-20T09:41:01Z</time>
      </trkpt>
      <trkpt lat="45.06543" lon="2.76235">
        <ele>1756.95</ele>
        <time>2015-07-20T09:41:06Z</time>
      </trkpt>
      <trkpt lat="45.06539" lon="2.76236">
        <ele>1757.43</ele>
        <time>2015-07-20T09:41:10Z</time>
      </trkpt>
      <trkpt lat="45.06531" lon="2.76245">
        <ele>1761.75</ele>
        <time>2015-07-20T09:41:25Z</time>
      </trkpt>
      <trkpt lat="45.06532" lon="2.76252">
        <ele>1763.68</ele>
        <time>2015-07-20T09:41:31Z</time>
      </trkpt>
      <trkpt lat="45.06532" lon="2.76255">
        <ele>1764.16</ele>
        <time>2015-07-20T09:41:33Z</time>
      </trkpt>
      <trkpt lat="45.06538" lon="2.76267">
        <ele>1767.04</ele>
        <time>2015-07-20T09:41:46Z</time>
      </trkpt>
      <trkpt lat="45.06546" lon="2.76277">
        <ele>1769.44</ele>
        <time>2015-07-20T09:41:58Z</time>
      </trkpt>
      <trkpt lat="45.06548" lon="2.7628">
        <ele>1769.92</ele>
        <time>2015-07-20T09:42:01Z</time>
      </trkpt>
      <trkpt lat="45.06553" lon="2.76295">
        <ele>1774.25</ele>
        <time>2015-07-20T09:42:13Z</time>
      </trkpt>
      <trkpt lat="45.06555" lon="2.76297">
        <ele>1775.21</ele>
        <time>2015-07-20T09:42:16Z</time>
      </trkpt>
      <trkpt lat="45.06554" lon="2.76306">
        <ele>1775.21</ele>
        <time>2015-07-20T09:42:23Z</time>
      </trkpt>
      <trkpt lat="45.06549" lon="2.76309">
        <ele>1776.17</ele>
        <time>2015-07-20T09:42:28Z</time>
      </trkpt>
      <trkpt lat="45.06544" lon="2.76308">
        <ele>1777.61</ele>
        <time>2015-07-20T09:42:33Z</time>
      </trkpt>
      <trkpt lat="45.06537" lon="2.76301">
        <ele>1777.13</ele>
        <time>2015-07-20T09:42:42Z</time>
      </trkpt>
      <trkpt lat="45.06537" lon="2.76299">
        <ele>1776.65</ele>
        <time>2015-07-20T09:42:44Z</time>
      </trkpt>
      <trkpt lat="45.06532" lon="2.76289">
        <ele>1775.21</ele>
        <time>2015-07-20T09:42:57Z</time>
      </trkpt>
      <trkpt lat="45.06532" lon="2.76289">
        <ele>1775.21</ele>
        <time>2015-07-20T09:43:13Z</time>
      </trkpt>
      <trkpt lat="45.06532" lon="2.76289">
        <ele>1775.21</ele>
        <time>2015-07-20T09:43:26Z</time>
      </trkpt>
      <trkpt lat="45.06532" lon="2.7629">
        <ele>1775.21</ele>
        <time>2015-07-20T09:43:49Z</time>
      </trkpt>
      <trkpt lat="45.0653" lon="2.7629">
        <ele>1775.21</ele>
        <time>2015-07-20T09:44:01Z</time>
      </trkpt>
      <trkpt lat="45.0653" lon="2.7629">
        <ele>1775.21</ele>
        <time>2015-07-20T09:44:21Z</time>
      </trkpt>
      <trkpt lat="45.0653" lon="2.7629">
        <ele>1775.21</ele>
        <time>2015-07-20T09:44:37Z</time>
      </trkpt>
      <trkpt lat="45.06529" lon="2.76291">
        <ele>1775.21</ele>
        <time>2015-07-20T09:44:39Z</time>
      </trkpt>
      <trkpt lat="45.06526" lon="2.7629">
        <ele>1775.21</ele>
        <time>2015-07-20T09:44:42Z</time>
      </trkpt>
      <trkpt lat="45.06514" lon="2.76295">
        <ele>1774.73</ele>
        <time>2015-07-20T09:44:54Z</time>
      </trkpt>
      <trkpt lat="45.06508" lon="2.76296">
        <ele>1775.69</ele>
        <time>2015-07-20T09:44:59Z</time>
      </trkpt>
      <trkpt lat="45.06504" lon="2.76296">
        <ele>1776.17</ele>
        <time>2015-07-20T09:45:13Z</time>
      </trkpt>
      <trkpt lat="45.065" lon="2.76295">
        <ele>1777.13</ele>
        <time>2015-07-20T09:45:23Z</time>
      </trkpt>
      <trkpt lat="45.06494" lon="2.76292">
        <ele>1778.1</ele>
        <time>2015-07-20T09:45:34Z</time>
      </trkpt>
      <trkpt lat="45.0649" lon="2.76288">
        <ele>1778.1</ele>
        <time>2015-07-20T09:45:39Z</time>
      </trkpt>
      <trkpt lat="45.06481" lon="2.76281">
        <ele>1778.1</ele>
        <time>2015-07-20T09:45:48Z</time>
      </trkpt>
      <trkpt lat="45.06471" lon="2.76274">
        <ele>1777.61</ele>
        <time>2015-07-20T09:46:03Z</time>
      </trkpt>
      <trkpt lat="45.06464" lon="2.76271">
        <ele>1777.13</ele>
        <time>2015-07-20T09:46:13Z</time>
      </trkpt>
      <trkpt lat="45.06455" lon="2.76261">
        <ele>1778.1</ele>
        <time>2015-07-20T09:46:26Z</time>
      </trkpt>
      <trkpt lat="45.06452" lon="2.76257">
        <ele>1777.61</ele>
        <time>2015-07-20T09:46:35Z</time>
      </trkpt>
      <trkpt lat="45.06452" lon="2.76256">
        <ele>1778.1</ele>
        <time>2015-07-20T09:46:36Z</time>
      </trkpt>
      <trkpt lat="45.06441" lon="2.76246">
        <ele>1779.54</ele>
        <time>2015-07-20T09:46:52Z</time>
      </trkpt>
      <trkpt lat="45.06439" lon="2.76244">
        <ele>1779.54</ele>
        <time>2015-07-20T09:47:10Z</time>
      </trkpt>
      <trkpt lat="45.06434" lon="2.76237">
        <ele>1779.54</ele>
        <time>2015-07-20T09:47:20Z</time>
      </trkpt>
      <trkpt lat="45.06424" lon="2.76228">
        <ele>1781.94</ele>
        <time>2015-07-20T09:47:33Z</time>
      </trkpt>
      <trkpt lat="45.06415" lon="2.76213">
        <ele>1782.42</ele>
        <time>2015-07-20T09:47:47Z</time>
      </trkpt>
      <trkpt lat="45.06403" lon="2.76197">
        <ele>1782.9</ele>
        <time>2015-07-20T09:48:03Z</time>
      </trkpt>
      <trkpt lat="45.064" lon="2.76193">
        <ele>1783.38</ele>
        <time>2015-07-20T09:48:08Z</time>
      </trkpt>
      <trkpt lat="45.06398" lon="2.7619">
        <ele>1783.86</ele>
        <time>2015-07-20T09:48:10Z</time>
      </trkpt>
      <trkpt lat="45.06389" lon="2.76181">
        <ele>1787.71</ele>
        <time>2015-07-20T09:48:23Z</time>
      </trkpt>
      <trkpt lat="45.06386" lon="2.76178">
        <ele>1787.71</ele>
        <time>2015-07-20T09:48:30Z</time>
      </trkpt>
      <trkpt lat="45.06384" lon="2.76176">
        <ele>1788.67</ele>
        <time>2015-07-20T09:48:33Z</time>
      </trkpt>
      <trkpt lat="45.06382" lon="2.76174">
        <ele>1789.15</ele>
        <time>2015-07-20T09:48:36Z</time>
      </trkpt>
      <trkpt lat="45.06378" lon="2.76171">
        <ele>1789.63</ele>
        <time>2015-07-20T09:48:42Z</time>
      </trkpt>
      <trkpt lat="45.06371" lon="2.76163">
        <ele>1789.63</ele>
        <time>2015-07-20T09:48:53Z</time>
      </trkpt>
      <trkpt lat="45.06368" lon="2.76162">
        <ele>1790.59</ele>
        <time>2015-07-20T09:48:56Z</time>
      </trkpt>
      <trkpt lat="45.06364" lon="2.76158">
        <ele>1790.59</ele>
        <time>2015-07-20T09:49:00Z</time>
      </trkpt>
      <trkpt lat="45.0636" lon="2.76155">
        <ele>1790.59</ele>
        <time>2015-07-20T09:49:04Z</time>
      </trkpt>
      <trkpt lat="45.06351" lon="2.76148">
        <ele>1791.07</ele>
        <time>2015-07-20T09:49:13Z</time>
      </trkpt>
      <trkpt lat="45.0634" lon="2.76136">
        <ele>1793.48</ele>
        <time>2015-07-20T09:49:27Z</time>
      </trkpt>
      <trkpt lat="45.06338" lon="2.76131">
        <ele>1794.44</ele>
        <time>2015-07-20T09:49:30Z</time>
      </trkpt>
      <trkpt lat="45.06336" lon="2.7613">
        <ele>1794.92</ele>
        <time>2015-07-20T09:49:32Z</time>
      </trkpt>
      <trkpt lat="45.06332" lon="2.76122">
        <ele>1798.76</ele>
        <time>2015-07-20T09:49:39Z</time>
      </trkpt>
      <trkpt lat="45.06332" lon="2.76119">
        <ele>1799.73</ele>
        <time>2015-07-20T09:49:41Z</time>
      </trkpt>
      <trkpt lat="45.06329" lon="2.76105">
        <ele>1807.9</ele>
        <time>2015-07-20T09:49:53Z</time>
      </trkpt>
      <trkpt lat="45.0633" lon="2.76104">
        <ele>1810.3</ele>
        <time>2015-07-20T09:50:04Z</time>
      </trkpt>
      <trkpt lat="45.06331" lon="2.76103">
        <ele>1808.86</ele>
        <time>2015-07-20T09:50:24Z</time>
      </trkpt>
      <trkpt lat="45.06332" lon="2.76102">
        <ele>1807.42</ele>
        <time>2015-07-20T09:50:44Z</time>
      </trkpt>
      <trkpt lat="45.06332" lon="2.76104">
        <ele>1806.45</ele>
        <time>2015-07-20T09:50:56Z</time>
      </trkpt>
      <trkpt lat="45.06332" lon="2.76104">
        <ele>1804.53</ele>
        <time>2015-07-20T09:51:10Z</time>
      </trkpt>
      <trkpt lat="45.06331" lon="2.76098">
        <ele>1803.09</ele>
        <time>2015-07-20T09:51:23Z</time>
      </trkpt>
      <trkpt lat="45.06329" lon="2.76089">
        <ele>1802.61</ele>
        <time>2015-07-20T09:51:31Z</time>
      </trkpt>
      <trkpt lat="45.06332" lon="2.76081">
        <ele>1803.57</ele>
        <time>2015-07-20T09:51:42Z</time>
      </trkpt>
      <trkpt lat="45.06331" lon="2.76078">
        <ele>1804.05</ele>
        <time>2015-07-20T09:52:06Z</time>
      </trkpt>
      <trkpt lat="45.06331" lon="2.76077">
        <ele>1804.05</ele>
        <time>2015-07-20T09:52:13Z</time>
      </trkpt>
      <trkpt lat="45.06327" lon="2.76063">
        <ele>1802.13</ele>
        <time>2015-07-20T09:52:27Z</time>
      </trkpt>
      <trkpt lat="45.06326" lon="2.76054">
        <ele>1802.13</ele>
        <time>2015-07-20T09:52:39Z</time>
      </trkpt>
      <trkpt lat="45.06327" lon="2.76049">
        <ele>1801.65</ele>
        <time>2015-07-20T09:52:45Z</time>
      </trkpt>
      <trkpt lat="45.06328" lon="2.76046">
        <ele>1800.69</ele>
        <time>2015-07-20T09:52:52Z</time>
      </trkpt>
      <trkpt lat="45.06326" lon="2.76052">
        <ele>1802.13</ele>
        <time>2015-07-20T09:53:05Z</time>
      </trkpt>
      <trkpt lat="45.06327" lon="2.76053">
        <ele>1800.69</ele>
        <time>2015-07-20T09:53:19Z</time>
      </trkpt>
      <trkpt lat="45.06327" lon="2.76053">
        <ele>1800.21</ele>
        <time>2015-07-20T09:53:52Z</time>
      </trkpt>
      <trkpt lat="45.06327" lon="2.76053">
        <ele>1800.69</ele>
        <time>2015-07-20T09:54:19Z</time>
      </trkpt>
      <trkpt lat="45.06327" lon="2.76054">
        <ele>1800.21</ele>
        <time>2015-07-20T09:54:51Z</time>
      </trkpt>
      <trkpt lat="45.06324" lon="2.76052">
        <ele>1799.73</ele>
        <time>2015-07-20T09:55:31Z</time>
      </trkpt>
      <trkpt lat="45.06325" lon="2.76054">
        <ele>1799.24</ele>
        <time>2015-07-20T09:56:13Z</time>
      </trkpt>
      <trkpt lat="45.06325" lon="2.76054">
        <ele>1799.24</ele>
        <time>2015-07-20T09:56:39Z</time>
      </trkpt>
      <trkpt lat="45.06324" lon="2.76053">
        <ele>1799.73</ele>
        <time>2015-07-20T09:57:05Z</time>
      </trkpt>
      <trkpt lat="45.06324" lon="2.76053">
        <ele>1800.21</ele>
        <time>2015-07-20T09:57:27Z</time>
      </trkpt>
      <trkpt lat="45.06322" lon="2.76052">
        <ele>1800.21</ele>
        <time>2015-07-20T09:58:06Z</time>
      </trkpt>
      <trkpt lat="45.06322" lon="2.76052">
        <ele>1800.21</ele>
        <time>2015-07-20T09:58:39Z</time>
      </trkpt>
      <trkpt lat="45.06322" lon="2.76051">
        <ele>1800.69</ele>
        <time>2015-07-20T09:59:21Z</time>
      </trkpt>
      <trkpt lat="45.06322" lon="2.76051">
        <ele>1800.69</ele>
        <time>2015-07-20T10:00:03Z</time>
      </trkpt>
      <trkpt lat="45.06322" lon="2.76052">
        <ele>1800.69</ele>
        <time>2015-07-20T10:00:34Z</time>
      </trkpt>
      <trkpt lat="45.06322" lon="2.76052">
        <ele>1800.21</ele>
        <time>2015-07-20T10:01:03Z</time>
      </trkpt>
      <trkpt lat="45.06321" lon="2.76052">
        <ele>1800.21</ele>
        <time>2015-07-20T10:01:33Z</time>
      </trkpt>
      <trkpt lat="45.06321" lon="2.76052">
        <ele>1800.21</ele>
        <time>2015-07-20T10:02:07Z</time>
      </trkpt>
      <trkpt lat="45.06322" lon="2.76052">
        <ele>1798.76</ele>
        <time>2015-07-20T10:02:33Z</time>
      </trkpt>
      <trkpt lat="45.06323" lon="2.76052">
        <ele>1798.28</ele>
        <time>2015-07-20T10:03:04Z</time>
      </trkpt>
      <trkpt lat="45.06323" lon="2.76053">
        <ele>1797.8</ele>
        <time>2015-07-20T10:03:18Z</time>
      </trkpt>
      <trkpt lat="45.06322" lon="2.76053">
        <ele>1795.88</ele>
        <time>2015-07-20T10:03:29Z</time>
      </trkpt>
      <trkpt lat="45.06324" lon="2.76054">
        <ele>1795.4</ele>
        <time>2015-07-20T10:03:43Z</time>
      </trkpt>
      <trkpt lat="45.06324" lon="2.76054">
        <ele>1795.4</ele>
        <time>2015-07-20T10:03:58Z</time>
      </trkpt>
      <trkpt lat="45.06323" lon="2.76055">
        <ele>1794.92</ele>
        <time>2015-07-20T10:04:07Z</time>
      </trkpt>
      <trkpt lat="45.06323" lon="2.76062">
        <ele>1793.48</ele>
        <time>2015-07-20T10:04:16Z</time>
      </trkpt>
      <trkpt lat="45.06323" lon="2.76059">
        <ele>1793.48</ele>
        <time>2015-07-20T10:04:19Z</time>
      </trkpt>
      <trkpt lat="45.06323" lon="2.76075">
        <ele>1793.96</ele>
        <time>2015-07-20T10:04:31Z</time>
      </trkpt>
      <trkpt lat="45.06327" lon="2.76091">
        <ele>1794.92</ele>
        <time>2015-07-20T10:04:44Z</time>
      </trkpt>
      <trkpt lat="45.06326" lon="2.76098">
        <ele>1796.36</ele>
        <time>2015-07-20T10:04:49Z</time>
      </trkpt>
      <trkpt lat="45.06325" lon="2.76107">
        <ele>1796.84</ele>
        <time>2015-07-20T10:04:55Z</time>
      </trkpt>
      <trkpt lat="45.06325" lon="2.76112">
        <ele>1796.84</ele>
        <time>2015-07-20T10:04:58Z</time>
      </trkpt>
      <trkpt lat="45.06327" lon="2.76121">
        <ele>1797.32</ele>
        <time>2015-07-20T10:05:04Z</time>
      </trkpt>
      <trkpt lat="45.06323" lon="2.76127">
        <ele>1795.88</ele>
        <time>2015-07-20T10:05:17Z</time>
      </trkpt>
      <trkpt lat="45.0632" lon="2.76125">
        <ele>1795.88</ele>
        <time>2015-07-20T10:05:32Z</time>
      </trkpt>
      <trkpt lat="45.0632" lon="2.76125">
        <ele>1796.36</ele>
        <time>2015-07-20T10:05:51Z</time>
      </trkpt>
      <trkpt lat="45.0632" lon="2.76125">
        <ele>1796.36</ele>
        <time>2015-07-20T10:06:14Z</time>
      </trkpt>
      <trkpt lat="45.06319" lon="2.76124">
        <ele>1796.36</ele>
        <time>2015-07-20T10:06:31Z</time>
      </trkpt>
      <trkpt lat="45.06319" lon="2.76123">
        <ele>1795.88</ele>
        <time>2015-07-20T10:06:45Z</time>
      </trkpt>
      <trkpt lat="45.06319" lon="2.76123">
        <ele>1795.88</ele>
        <time>2015-07-20T10:07:07Z</time>
      </trkpt>
      <trkpt lat="45.06318" lon="2.76115">
        <ele>1795.88</ele>
        <time>2015-07-20T10:07:26Z</time>
      </trkpt>
      <trkpt lat="45.06318" lon="2.76115">
        <ele>1795.88</ele>
        <time>2015-07-20T10:07:52Z</time>
      </trkpt>
      <trkpt lat="45.06319" lon="2.76121">
        <ele>1795.88</ele>
        <time>2015-07-20T10:08:12Z</time>
      </trkpt>
      <trkpt lat="45.0632" lon="2.76123">
        <ele>1796.36</ele>
        <time>2015-07-20T10:08:20Z</time>
      </trkpt>
      <trkpt lat="45.06319" lon="2.76124">
        <ele>1795.88</ele>
        <time>2015-07-20T10:08:33Z</time>
      </trkpt>
      <trkpt lat="45.0632" lon="2.76125">
        <ele>1796.36</ele>
        <time>2015-07-20T10:08:45Z</time>
      </trkpt>
      <trkpt lat="45.0632" lon="2.76125">
        <ele>1796.36</ele>
        <time>2015-07-20T10:08:58Z</time>
      </trkpt>
      <trkpt lat="45.06321" lon="2.76124">
        <ele>1797.8</ele>
        <time>2015-07-20T10:09:08Z</time>
      </trkpt>
      <trkpt lat="45.06322" lon="2.76124">
        <ele>1797.8</ele>
        <time>2015-07-20T10:09:34Z</time>
      </trkpt>
      <trkpt lat="45.06322" lon="2.76125">
        <ele>1798.28</ele>
        <time>2015-07-20T10:09:57Z</time>
      </trkpt>
      <trkpt lat="45.06323" lon="2.76127">
        <ele>1798.28</ele>
        <time>2015-07-20T10:10:15Z</time>
      </trkpt>
      <trkpt lat="45.06322" lon="2.76126">
        <ele>1798.28</ele>
        <time>2015-07-20T10:10:32Z</time>
      </trkpt>
      <trkpt lat="45.06323" lon="2.76119">
        <ele>1798.76</ele>
        <time>2015-07-20T10:10:41Z</time>
      </trkpt>
      <trkpt lat="45.06321" lon="2.76111">
        <ele>1799.24</ele>
        <time>2015-07-20T10:10:46Z</time>
      </trkpt>
      <trkpt lat="45.06318" lon="2.7611">
        <ele>1800.21</ele>
        <time>2015-07-20T10:10:49Z</time>
      </trkpt>
      <trkpt lat="45.06305" lon="2.76115">
        <ele>1803.09</ele>
        <time>2015-07-20T10:11:03Z</time>
      </trkpt>
      <trkpt lat="45.0629" lon="2.76118">
        <ele>1803.09</ele>
        <time>2015-07-20T10:11:17Z</time>
      </trkpt>
      <trkpt lat="45.06277" lon="2.76122">
        <ele>1801.17</ele>
        <time>2015-07-20T10:11:31Z</time>
      </trkpt>
      <trkpt lat="45.06261" lon="2.76127">
        <ele>1798.76</ele>
        <time>2015-07-20T10:11:46Z</time>
      </trkpt>
      <trkpt lat="45.06259" lon="2.76129">
        <ele>1798.76</ele>
        <time>2015-07-20T10:11:48Z</time>
      </trkpt>
      <trkpt lat="45.0625" lon="2.76127">
        <ele>1798.28</ele>
        <time>2015-07-20T10:11:56Z</time>
      </trkpt>
      <trkpt lat="45.06248" lon="2.76125">
        <ele>1798.76</ele>
        <time>2015-07-20T10:11:59Z</time>
      </trkpt>
      <trkpt lat="45.06242" lon="2.76124">
        <ele>1800.69</ele>
        <time>2015-07-20T10:12:09Z</time>
      </trkpt>
      <trkpt lat="45.06238" lon="2.76123">
        <ele>1800.69</ele>
        <time>2015-07-20T10:12:19Z</time>
      </trkpt>
      <trkpt lat="45.06238" lon="2.76123">
        <ele>1800.69</ele>
        <time>2015-07-20T10:12:26Z</time>
      </trkpt>
      <trkpt lat="45.06229" lon="2.76119">
        <ele>1801.17</ele>
        <time>2015-07-20T10:12:35Z</time>
      </trkpt>
      <trkpt lat="45.06227" lon="2.7612">
        <ele>1801.65</ele>
        <time>2015-07-20T10:12:37Z</time>
      </trkpt>
      <trkpt lat="45.06213" lon="2.76115">
        <ele>1801.65</ele>
        <time>2015-07-20T10:12:50Z</time>
      </trkpt>
      <trkpt lat="45.06208" lon="2.76113">
        <ele>1802.61</ele>
        <time>2015-07-20T10:12:55Z</time>
      </trkpt>
      <trkpt lat="45.06203" lon="2.76111">
        <ele>1802.61</ele>
        <time>2015-07-20T10:13:07Z</time>
      </trkpt>
      <trkpt lat="45.06201" lon="2.76111">
        <ele>1802.61</ele>
        <time>2015-07-20T10:13:09Z</time>
      </trkpt>
      <trkpt lat="45.06189" lon="2.76114">
        <ele>1801.17</ele>
        <time>2015-07-20T10:13:21Z</time>
      </trkpt>
      <trkpt lat="45.06177" lon="2.76129">
        <ele>1802.13</ele>
        <time>2015-07-20T10:13:36Z</time>
      </trkpt>
      <trkpt lat="45.06175" lon="2.76134">
        <ele>1802.13</ele>
        <time>2015-07-20T10:13:40Z</time>
      </trkpt>
      <trkpt lat="45.06166" lon="2.76141">
        <ele>1803.09</ele>
        <time>2015-07-20T10:13:49Z</time>
      </trkpt>
      <trkpt lat="45.06154" lon="2.76148">
        <ele>1804.53</ele>
        <time>2015-07-20T10:14:03Z</time>
      </trkpt>
      <trkpt lat="45.06148" lon="2.76151">
        <ele>1805.49</ele>
        <time>2015-07-20T10:14:16Z</time>
      </trkpt>
      <trkpt lat="45.06142" lon="2.76152">
        <ele>1806.45</ele>
        <time>2015-07-20T10:14:23Z</time>
      </trkpt>
      <trkpt lat="45.06134" lon="2.76154">
        <ele>1807.42</ele>
        <time>2015-07-20T10:14:31Z</time>
      </trkpt>
      <trkpt lat="45.06121" lon="2.76154">
        <ele>1808.38</ele>
        <time>2015-07-20T10:14:45Z</time>
      </trkpt>
      <trkpt lat="45.06119" lon="2.76155">
        <ele>1807.9</ele>
        <time>2015-07-20T10:14:47Z</time>
      </trkpt>
      <trkpt lat="45.06108" lon="2.76161">
        <ele>1812.22</ele>
        <time>2015-07-20T10:14:59Z</time>
      </trkpt>
      <trkpt lat="45.06101" lon="2.76163">
        <ele>1811.26</ele>
        <time>2015-07-20T10:15:09Z</time>
      </trkpt>
      <trkpt lat="45.06096" lon="2.76165">
        <ele>1811.74</ele>
        <time>2015-07-20T10:15:13Z</time>
      </trkpt>
      <trkpt lat="45.06084" lon="2.76168">
        <ele>1813.18</ele>
        <time>2015-07-20T10:15:27Z</time>
      </trkpt>
      <trkpt lat="45.06079" lon="2.76169">
        <ele>1812.7</ele>
        <time>2015-07-20T10:15:33Z</time>
      </trkpt>
      <trkpt lat="45.06066" lon="2.76173">
        <ele>1811.74</ele>
        <time>2015-07-20T10:15:45Z</time>
      </trkpt>
      <trkpt lat="45.06055" lon="2.76176">
        <ele>1811.26</ele>
        <time>2015-07-20T10:15:57Z</time>
      </trkpt>
      <trkpt lat="45.06041" lon="2.76178">
        <ele>1812.22</ele>
        <time>2015-07-20T10:16:12Z</time>
      </trkpt>
      <trkpt lat="45.0603" lon="2.76183">
        <ele>1814.15</ele>
        <time>2015-07-20T10:16:25Z</time>
      </trkpt>
      <trkpt lat="45.06028" lon="2.76184">
        <ele>1813.66</ele>
        <time>2015-07-20T10:16:28Z</time>
      </trkpt>
      <trkpt lat="45.06016" lon="2.76182">
        <ele>1815.11</ele>
        <time>2015-07-20T10:16:45Z</time>
      </trkpt>
      <trkpt lat="45.06007" lon="2.76179">
        <ele>1816.55</ele>
        <time>2015-07-20T10:16:56Z</time>
      </trkpt>
      <trkpt lat="45.05999" lon="2.76177">
        <ele>1819.43</ele>
        <time>2015-07-20T10:17:07Z</time>
      </trkpt>
      <trkpt lat="45.05993" lon="2.76176">
        <ele>1821.35</ele>
        <time>2015-07-20T10:17:19Z</time>
      </trkpt>
      <trkpt lat="45.05987" lon="2.76174">
        <ele>1822.8</ele>
        <time>2015-07-20T10:17:28Z</time>
      </trkpt>
      <trkpt lat="45.05979" lon="2.76173">
        <ele>1823.28</ele>
        <time>2015-07-20T10:17:40Z</time>
      </trkpt>
      <trkpt lat="45.05972" lon="2.7617">
        <ele>1823.28</ele>
        <time>2015-07-20T10:17:52Z</time>
      </trkpt>
      <trkpt lat="45.05966" lon="2.76168">
        <ele>1823.76</ele>
        <time>2015-07-20T10:18:03Z</time>
      </trkpt>
      <trkpt lat="45.05959" lon="2.76168">
        <ele>1826.16</ele>
        <time>2015-07-20T10:18:15Z</time>
      </trkpt>
      <trkpt lat="45.05954" lon="2.76169">
        <ele>1826.16</ele>
        <time>2015-07-20T10:18:25Z</time>
      </trkpt>
      <trkpt lat="45.05952" lon="2.7617">
        <ele>1827.12</ele>
        <time>2015-07-20T10:18:28Z</time>
      </trkpt>
      <trkpt lat="45.05948" lon="2.76173">
        <ele>1831.45</ele>
        <time>2015-07-20T10:18:37Z</time>
      </trkpt>
      <trkpt lat="45.05942" lon="2.76177">
        <ele>1834.81</ele>
        <time>2015-07-20T10:18:49Z</time>
      </trkpt>
      <trkpt lat="45.05938" lon="2.76183">
        <ele>1836.26</ele>
        <time>2015-07-20T10:18:58Z</time>
      </trkpt>
      <trkpt lat="45.05931" lon="2.7619">
        <ele>1837.22</ele>
        <time>2015-07-20T10:19:10Z</time>
      </trkpt>
      <trkpt lat="45.05923" lon="2.76194">
        <ele>1839.14</ele>
        <time>2015-07-20T10:19:21Z</time>
      </trkpt>
      <trkpt lat="45.05916" lon="2.76191">
        <ele>1842.5</ele>
        <time>2015-07-20T10:19:33Z</time>
      </trkpt>
      <trkpt lat="45.0591" lon="2.76187">
        <ele>1844.91</ele>
        <time>2015-07-20T10:19:45Z</time>
      </trkpt>
      <trkpt lat="45.05903" lon="2.76178">
        <ele>1847.79</ele>
        <time>2015-07-20T10:20:01Z</time>
      </trkpt>
      <trkpt lat="45.05897" lon="2.76168">
        <ele>1850.68</ele>
        <time>2015-07-20T10:20:14Z</time>
      </trkpt>
      <trkpt lat="45.05894" lon="2.7616">
        <ele>1853.08</ele>
        <time>2015-07-20T10:20:23Z</time>
      </trkpt>
      <trkpt lat="45.05893" lon="2.76159">
        <ele>1853.56</ele>
        <time>2015-07-20T10:20:24Z</time>
      </trkpt>
      <trkpt lat="45.0589" lon="2.76144">
        <ele>1855.48</ele>
        <time>2015-07-20T10:20:37Z</time>
      </trkpt>
      <trkpt lat="45.05891" lon="2.76142">
        <ele>1855.48</ele>
        <time>2015-07-20T10:20:40Z</time>
      </trkpt>
      <trkpt lat="45.05895" lon="2.76142">
        <ele>1855.48</ele>
        <time>2015-07-20T10:20:52Z</time>
      </trkpt>
      <trkpt lat="45.05895" lon="2.76142">
        <ele>1855.48</ele>
        <time>2015-07-20T10:21:08Z</time>
      </trkpt>
      <trkpt lat="45.05895" lon="2.7614">
        <ele>1855</ele>
        <time>2015-07-20T10:21:26Z</time>
      </trkpt>
      <trkpt lat="45.05897" lon="2.76138">
        <ele>1854.52</ele>
        <time>2015-07-20T10:21:35Z</time>
      </trkpt>
      <trkpt lat="45.059" lon="2.76136">
        <ele>1854.52</ele>
        <time>2015-07-20T10:21:46Z</time>
      </trkpt>
      <trkpt lat="45.05903" lon="2.76134">
        <ele>1854.04</ele>
        <time>2015-07-20T10:21:55Z</time>
      </trkpt>
      <trkpt lat="45.05903" lon="2.76135">
        <ele>1853.56</ele>
        <time>2015-07-20T10:22:10Z</time>
      </trkpt>
      <trkpt lat="45.05903" lon="2.76135">
        <ele>1853.56</ele>
        <time>2015-07-20T10:22:26Z</time>
      </trkpt>
      <trkpt lat="45.05904" lon="2.76135">
        <ele>1854.04</ele>
        <time>2015-07-20T10:22:46Z</time>
      </trkpt>
      <trkpt lat="45.05904" lon="2.76136">
        <ele>1855</ele>
        <time>2015-07-20T10:23:07Z</time>
      </trkpt>
      <trkpt lat="45.05904" lon="2.76136">
        <ele>1855</ele>
        <time>2015-07-20T10:23:21Z</time>
      </trkpt>
      <trkpt lat="45.05904" lon="2.76136">
        <ele>1855.48</ele>
        <time>2015-07-20T10:23:35Z</time>
      </trkpt>
      <trkpt lat="45.05903" lon="2.76136">
        <ele>1855.96</ele>
        <time>2015-07-20T10:23:49Z</time>
      </trkpt>
      <trkpt lat="45.05903" lon="2.76137">
        <ele>1856.44</ele>
        <time>2015-07-20T10:24:08Z</time>
      </trkpt>
      <trkpt lat="45.05903" lon="2.76136">
        <ele>1856.92</ele>
        <time>2015-07-20T10:24:30Z</time>
      </trkpt>
      <trkpt lat="45.05905" lon="2.76134">
        <ele>1856.44</ele>
        <time>2015-07-20T10:24:40Z</time>
      </trkpt>
      <trkpt lat="45.05906" lon="2.76136">
        <ele>1856.92</ele>
        <time>2015-07-20T10:24:52Z</time>
      </trkpt>
      <trkpt lat="45.05905" lon="2.76136">
        <ele>1856.92</ele>
        <time>2015-07-20T10:25:07Z</time>
      </trkpt>
      <trkpt lat="45.05906" lon="2.76139">
        <ele>1856.92</ele>
        <time>2015-07-20T10:25:18Z</time>
      </trkpt>
      <trkpt lat="45.05907" lon="2.76138">
        <ele>1856.44</ele>
        <time>2015-07-20T10:25:27Z</time>
      </trkpt>
      <trkpt lat="45.05912" lon="2.76137">
        <ele>1855.48</ele>
        <time>2015-07-20T10:25:40Z</time>
      </trkpt>
      <trkpt lat="45.05913" lon="2.76137">
        <ele>1854.52</ele>
        <time>2015-07-20T10:25:58Z</time>
      </trkpt>
      <trkpt lat="45.05912" lon="2.76137">
        <ele>1854.52</ele>
        <time>2015-07-20T10:26:04Z</time>
      </trkpt>
      <trkpt lat="45.05909" lon="2.76137">
        <ele>1854.52</ele>
        <time>2015-07-20T10:26:13Z</time>
      </trkpt>
      <trkpt lat="45.05909" lon="2.76136">
        <ele>1855</ele>
        <time>2015-07-20T10:26:16Z</time>
      </trkpt>
      <trkpt lat="45.05914" lon="2.76136">
        <ele>1856.44</ele>
        <time>2015-07-20T10:26:26Z</time>
      </trkpt>
      <trkpt lat="45.05913" lon="2.76136">
        <ele>1856.92</ele>
        <time>2015-07-20T10:26:41Z</time>
      </trkpt>
      <trkpt lat="45.05912" lon="2.76136">
        <ele>1856.44</ele>
        <time>2015-07-20T10:26:59Z</time>
      </trkpt>
      <trkpt lat="45.05911" lon="2.76137">
        <ele>1856.44</ele>
        <time>2015-07-20T10:27:22Z</time>
      </trkpt>
      <trkpt lat="45.05914" lon="2.76135">
        <ele>1854.52</ele>
        <time>2015-07-20T10:27:39Z</time>
      </trkpt>
      <trkpt lat="45.05911" lon="2.76135">
        <ele>1853.56</ele>
        <time>2015-07-20T10:27:52Z</time>
      </trkpt>
      <trkpt lat="45.05912" lon="2.76135">
        <ele>1853.56</ele>
        <time>2015-07-20T10:28:04Z</time>
      </trkpt>
      <trkpt lat="45.05912" lon="2.76134">
        <ele>1854.04</ele>
        <time>2015-07-20T10:28:22Z</time>
      </trkpt>
      <trkpt lat="45.05911" lon="2.76134">
        <ele>1854.04</ele>
        <time>2015-07-20T10:28:27Z</time>
      </trkpt>
      <trkpt lat="45.05906" lon="2.76131">
        <ele>1853.56</ele>
        <time>2015-07-20T10:28:32Z</time>
      </trkpt>
      <trkpt lat="45.05895" lon="2.76127">
        <ele>1852.12</ele>
        <time>2015-07-20T10:28:45Z</time>
      </trkpt>
      <trkpt lat="45.05895" lon="2.76128">
        <ele>1853.08</ele>
        <time>2015-07-20T10:29:01Z</time>
      </trkpt>
      <trkpt lat="45.05887" lon="2.76132">
        <ele>1854.52</ele>
        <time>2015-07-20T10:29:14Z</time>
      </trkpt>
      <trkpt lat="45.05883" lon="2.76134">
        <ele>1855</ele>
        <time>2015-07-20T10:29:23Z</time>
      </trkpt>
      <trkpt lat="45.05878" lon="2.76137">
        <ele>1852.6</ele>
        <time>2015-07-20T10:29:30Z</time>
      </trkpt>
      <trkpt lat="45.05871" lon="2.7614">
        <ele>1852.12</ele>
        <time>2015-07-20T10:29:44Z</time>
      </trkpt>
      <trkpt lat="45.05871" lon="2.7614">
        <ele>1852.6</ele>
        <time>2015-07-20T10:29:58Z</time>
      </trkpt>
      <trkpt lat="45.05865" lon="2.76142">
        <ele>1852.6</ele>
        <time>2015-07-20T10:30:10Z</time>
      </trkpt>
      <trkpt lat="45.05859" lon="2.76143">
        <ele>1851.16</ele>
        <time>2015-07-20T10:30:17Z</time>
      </trkpt>
      <trkpt lat="45.05855" lon="2.76144">
        <ele>1849.23</ele>
        <time>2015-07-20T10:30:23Z</time>
      </trkpt>
      <trkpt lat="45.05853" lon="2.76145">
        <ele>1848.75</ele>
        <time>2015-07-20T10:30:25Z</time>
      </trkpt>
      <trkpt lat="45.05852" lon="2.76144">
        <ele>1848.75</ele>
        <time>2015-07-20T10:30:37Z</time>
      </trkpt>
      <trkpt lat="45.05854" lon="2.76144">
        <ele>1849.71</ele>
        <time>2015-07-20T10:30:45Z</time>
      </trkpt>
      <trkpt lat="45.05855" lon="2.76145">
        <ele>1850.68</ele>
        <time>2015-07-20T10:30:47Z</time>
      </trkpt>
      <trkpt lat="45.05864" lon="2.76143">
        <ele>1852.6</ele>
        <time>2015-07-20T10:30:59Z</time>
      </trkpt>
      <trkpt lat="45.05871" lon="2.76143">
        <ele>1853.56</ele>
        <time>2015-07-20T10:31:09Z</time>
      </trkpt>
      <trkpt lat="45.05873" lon="2.76142">
        <ele>1854.04</ele>
        <time>2015-07-20T10:31:12Z</time>
      </trkpt>
      <trkpt lat="45.05882" lon="2.76141">
        <ele>1855</ele>
        <time>2015-07-20T10:31:21Z</time>
      </trkpt>
      <trkpt lat="45.0589" lon="2.7615">
        <ele>1854.52</ele>
        <time>2015-07-20T10:31:34Z</time>
      </trkpt>
      <trkpt lat="45.05891" lon="2.76151">
        <ele>1854.52</ele>
        <time>2015-07-20T10:31:36Z</time>
      </trkpt>
      <trkpt lat="45.05893" lon="2.76152">
        <ele>1854.04</ele>
        <time>2015-07-20T10:31:43Z</time>
      </trkpt>
      <trkpt lat="45.05894" lon="2.76162">
        <ele>1852.6</ele>
        <time>2015-07-20T10:31:53Z</time>
      </trkpt>
      <trkpt lat="45.05897" lon="2.76169">
        <ele>1851.16</ele>
        <time>2015-07-20T10:32:02Z</time>
      </trkpt>
      <trkpt lat="45.05901" lon="2.76176">
        <ele>1849.23</ele>
        <time>2015-07-20T10:32:16Z</time>
      </trkpt>
      <trkpt lat="45.05905" lon="2.76181">
        <ele>1848.27</ele>
        <time>2015-07-20T10:32:29Z</time>
      </trkpt>
      <trkpt lat="45.05911" lon="2.76188">
        <ele>1844.91</ele>
        <time>2015-07-20T10:32:42Z</time>
      </trkpt>
      <trkpt lat="45.05917" lon="2.76191">
        <ele>1843.47</ele>
        <time>2015-07-20T10:32:53Z</time>
      </trkpt>
      <trkpt lat="45.05925" lon="2.76192">
        <ele>1840.58</ele>
        <time>2015-07-20T10:33:06Z</time>
      </trkpt>
      <trkpt lat="45.05927" lon="2.76192">
        <ele>1840.1</ele>
        <time>2015-07-20T10:33:08Z</time>
      </trkpt>
      <trkpt lat="45.05933" lon="2.76187">
        <ele>1837.7</ele>
        <time>2015-07-20T10:33:19Z</time>
      </trkpt>
      <trkpt lat="45.05935" lon="2.76185">
        <ele>1837.22</ele>
        <time>2015-07-20T10:33:22Z</time>
      </trkpt>
      <trkpt lat="45.05939" lon="2.76179">
        <ele>1836.74</ele>
        <time>2015-07-20T10:33:29Z</time>
      </trkpt>
      <trkpt lat="45.05948" lon="2.76174">
        <ele>1835.77</ele>
        <time>2015-07-20T10:33:41Z</time>
      </trkpt>
      <trkpt lat="45.05956" lon="2.76162">
        <ele>1832.89</ele>
        <time>2015-07-20T10:33:54Z</time>
      </trkpt>
      <trkpt lat="45.05959" lon="2.76158">
        <ele>1832.41</ele>
        <time>2015-07-20T10:33:58Z</time>
      </trkpt>
      <trkpt lat="45.05962" lon="2.76138">
        <ele>1831.45</ele>
        <time>2015-07-20T10:34:13Z</time>
      </trkpt>
      <trkpt lat="45.05968" lon="2.76135">
        <ele>1829.53</ele>
        <time>2015-07-20T10:34:23Z</time>
      </trkpt>
      <trkpt lat="45.05975" lon="2.76126">
        <ele>1826.64</ele>
        <time>2015-07-20T10:34:37Z</time>
      </trkpt>
      <trkpt lat="45.05978" lon="2.76117">
        <ele>1825.68</ele>
        <time>2015-07-20T10:34:46Z</time>
      </trkpt>
      <trkpt lat="45.05979" lon="2.76105">
        <ele>1823.28</ele>
        <time>2015-07-20T10:34:55Z</time>
      </trkpt>
      <trkpt lat="45.05979" lon="2.76098">
        <ele>1822.32</ele>
        <time>2015-07-20T10:35:04Z</time>
      </trkpt>
      <trkpt lat="45.05979" lon="2.76098">
        <ele>1820.87</ele>
        <time>2015-07-20T10:35:20Z</time>
      </trkpt>
      <trkpt lat="45.0598" lon="2.76098">
        <ele>1820.39</ele>
        <time>2015-07-20T10:35:44Z</time>
      </trkpt>
      <trkpt lat="45.0598" lon="2.76098">
        <ele>1820.39</ele>
        <time>2015-07-20T10:36:08Z</time>
      </trkpt>
      <trkpt lat="45.05981" lon="2.76098">
        <ele>1820.39</ele>
        <time>2015-07-20T10:36:26Z</time>
      </trkpt>
      <trkpt lat="45.05979" lon="2.76098">
        <ele>1820.87</ele>
        <time>2015-07-20T10:36:28Z</time>
      </trkpt>
      <trkpt lat="45.05972" lon="2.76093">
        <ele>1822.32</ele>
        <time>2015-07-20T10:36:39Z</time>
      </trkpt>
      <trkpt lat="45.05966" lon="2.7609">
        <ele>1824.24</ele>
        <time>2015-07-20T10:36:47Z</time>
      </trkpt>
      <trkpt lat="45.05963" lon="2.76088">
        <ele>1824.72</ele>
        <time>2015-07-20T10:36:51Z</time>
      </trkpt>
      <trkpt lat="45.05963" lon="2.76087">
        <ele>1825.2</ele>
        <time>2015-07-20T10:37:01Z</time>
      </trkpt>
      <trkpt lat="45.0596" lon="2.76086">
        <ele>1824.72</ele>
        <time>2015-07-20T10:37:28Z</time>
      </trkpt>
      <trkpt lat="45.05958" lon="2.76085">
        <ele>1823.76</ele>
        <time>2015-07-20T10:37:31Z</time>
      </trkpt>
      <trkpt lat="45.05952" lon="2.76079">
        <ele>1821.84</ele>
        <time>2015-07-20T10:37:44Z</time>
      </trkpt>
      <trkpt lat="45.05951" lon="2.76079">
        <ele>1822.32</ele>
        <time>2015-07-20T10:37:46Z</time>
      </trkpt>
      <trkpt lat="45.05947" lon="2.76077">
        <ele>1823.76</ele>
        <time>2015-07-20T10:37:50Z</time>
      </trkpt>
      <trkpt lat="45.05939" lon="2.76073">
        <ele>1823.28</ele>
        <time>2015-07-20T10:38:03Z</time>
      </trkpt>
      <trkpt lat="45.05937" lon="2.76073">
        <ele>1823.28</ele>
        <time>2015-07-20T10:38:05Z</time>
      </trkpt>
      <trkpt lat="45.05933" lon="2.76076">
        <ele>1823.76</ele>
        <time>2015-07-20T10:38:09Z</time>
      </trkpt>
      <trkpt lat="45.05923" lon="2.76071">
        <ele>1823.28</ele>
        <time>2015-07-20T10:38:22Z</time>
      </trkpt>
      <trkpt lat="45.05916" lon="2.7607">
        <ele>1821.35</ele>
        <time>2015-07-20T10:38:29Z</time>
      </trkpt>
      <trkpt lat="45.05911" lon="2.76072">
        <ele>1820.39</ele>
        <time>2015-07-20T10:38:41Z</time>
      </trkpt>
      <trkpt lat="45.05908" lon="2.76072">
        <ele>1820.87</ele>
        <time>2015-07-20T10:38:59Z</time>
      </trkpt>
      <trkpt lat="45.05904" lon="2.7607">
        <ele>1821.35</ele>
        <time>2015-07-20T10:39:04Z</time>
      </trkpt>
      <trkpt lat="45.05899" lon="2.76071">
        <ele>1821.35</ele>
        <time>2015-07-20T10:39:14Z</time>
      </trkpt>
      <trkpt lat="45.05892" lon="2.76075">
        <ele>1820.87</ele>
        <time>2015-07-20T10:39:25Z</time>
      </trkpt>
      <trkpt lat="45.05886" lon="2.76076">
        <ele>1820.39</ele>
        <time>2015-07-20T10:39:32Z</time>
      </trkpt>
      <trkpt lat="45.05883" lon="2.76078">
        <ele>1820.39</ele>
        <time>2015-07-20T10:39:35Z</time>
      </trkpt>
      <trkpt lat="45.05876" lon="2.76082">
        <ele>1820.39</ele>
        <time>2015-07-20T10:39:48Z</time>
      </trkpt>
      <trkpt lat="45.05873" lon="2.76082">
        <ele>1818.95</ele>
        <time>2015-07-20T10:39:56Z</time>
      </trkpt>
      <trkpt lat="45.05865" lon="2.76084">
        <ele>1817.03</ele>
        <time>2015-07-20T10:40:04Z</time>
      </trkpt>
      <trkpt lat="45.05859" lon="2.76086">
        <ele>1815.11</ele>
        <time>2015-07-20T10:40:10Z</time>
      </trkpt>
      <trkpt lat="45.05856" lon="2.76089">
        <ele>1815.11</ele>
        <time>2015-07-20T10:40:14Z</time>
      </trkpt>
      <trkpt lat="45.05852" lon="2.76091">
        <ele>1815.59</ele>
        <time>2015-07-20T10:40:18Z</time>
      </trkpt>
      <trkpt lat="45.05841" lon="2.7609">
        <ele>1815.59</ele>
        <time>2015-07-20T10:40:30Z</time>
      </trkpt>
      <trkpt lat="45.05834" lon="2.76092">
        <ele>1815.59</ele>
        <time>2015-07-20T10:40:38Z</time>
      </trkpt>
      <trkpt lat="45.05831" lon="2.7609">
        <ele>1815.59</ele>
        <time>2015-07-20T10:40:41Z</time>
      </trkpt>
      <trkpt lat="45.05827" lon="2.76093">
        <ele>1815.11</ele>
        <time>2015-07-20T10:40:46Z</time>
      </trkpt>
      <trkpt lat="45.05823" lon="2.76096">
        <ele>1815.11</ele>
        <time>2015-07-20T10:40:53Z</time>
      </trkpt>
      <trkpt lat="45.05815" lon="2.76101">
        <ele>1817.03</ele>
        <time>2015-07-20T10:41:07Z</time>
      </trkpt>
      <trkpt lat="45.05806" lon="2.76103">
        <ele>1817.99</ele>
        <time>2015-07-20T10:41:16Z</time>
      </trkpt>
      <trkpt lat="45.05804" lon="2.76105">
        <ele>1818.47</ele>
        <time>2015-07-20T10:41:18Z</time>
      </trkpt>
      <trkpt lat="45.05789" lon="2.76115">
        <ele>1821.35</ele>
        <time>2015-07-20T10:41:33Z</time>
      </trkpt>
      <trkpt lat="45.05778" lon="2.76117">
        <ele>1822.8</ele>
        <time>2015-07-20T10:41:43Z</time>
      </trkpt>
      <trkpt lat="45.05767" lon="2.76118">
        <ele>1826.16</ele>
        <time>2015-07-20T10:41:54Z</time>
      </trkpt>
      <trkpt lat="45.05766" lon="2.76115">
        <ele>1825.68</ele>
        <time>2015-07-20T10:42:05Z</time>
      </trkpt>
      <trkpt lat="45.05767" lon="2.76115">
        <ele>1825.2</ele>
        <time>2015-07-20T10:42:08Z</time>
      </trkpt>
      <trkpt lat="45.05771" lon="2.76115">
        <ele>1822.32</ele>
        <time>2015-07-20T10:42:20Z</time>
      </trkpt>
      <trkpt lat="45.05768" lon="2.76117">
        <ele>1821.84</ele>
        <time>2015-07-20T10:42:28Z</time>
      </trkpt>
      <trkpt lat="45.05768" lon="2.76117">
        <ele>1821.84</ele>
        <time>2015-07-20T10:42:36Z</time>
      </trkpt>
      <trkpt lat="45.05761" lon="2.7612">
        <ele>1820.39</ele>
        <time>2015-07-20T10:42:45Z</time>
      </trkpt>
      <trkpt lat="45.05757" lon="2.76119">
        <ele>1819.43</ele>
        <time>2015-07-20T10:42:48Z</time>
      </trkpt>
      <trkpt lat="45.05747" lon="2.76121">
        <ele>1821.35</ele>
        <time>2015-07-20T10:43:00Z</time>
      </trkpt>
      <trkpt lat="45.05745" lon="2.76123">
        <ele>1821.84</ele>
        <time>2015-07-20T10:43:04Z</time>
      </trkpt>
      <trkpt lat="45.0574" lon="2.76127">
        <ele>1823.76</ele>
        <time>2015-07-20T10:43:11Z</time>
      </trkpt>
      <trkpt lat="45.05734" lon="2.76125">
        <ele>1824.24</ele>
        <time>2015-07-20T10:43:21Z</time>
      </trkpt>
      <trkpt lat="45.05734" lon="2.76126">
        <ele>1823.28</ele>
        <time>2015-07-20T10:43:33Z</time>
      </trkpt>
      <trkpt lat="45.05732" lon="2.76126">
        <ele>1822.32</ele>
        <time>2015-07-20T10:43:43Z</time>
      </trkpt>
      <trkpt lat="45.05728" lon="2.76132">
        <ele>1824.24</ele>
        <time>2015-07-20T10:43:51Z</time>
      </trkpt>
      <trkpt lat="45.05726" lon="2.76135">
        <ele>1826.16</ele>
        <time>2015-07-20T10:44:03Z</time>
      </trkpt>
      <trkpt lat="45.05729" lon="2.76136">
        <ele>1826.64</ele>
        <time>2015-07-20T10:44:12Z</time>
      </trkpt>
      <trkpt lat="45.0573" lon="2.76136">
        <ele>1826.64</ele>
        <time>2015-07-20T10:44:26Z</time>
      </trkpt>
      <trkpt lat="45.0573" lon="2.76136">
        <ele>1827.6</ele>
        <time>2015-07-20T10:44:37Z</time>
      </trkpt>
    </trkseg>
  </trk>
</gpx>